Moscow MillsWeather Station
Hourly Leaf Wetness Data

Source: University of Missouri

To the bottom of the page

Year Month Day Hour Leaf Wetness Total
Precipitation
Avg. Temp Avg. Rel.
Humidity
Wind
Speed
CST mV in mm F C % mph
2018 04 08 1:00 271.5 0.0 0.00 26.5 -3.1 72.88 0.4
2018 04 08 2:00 270.8 0.0 0.00 25.9 -3.4 73.54 1.7
2018 04 08 3:00 271.2 0.0 0.00 25.0 -3.9 76.98 0.5
2018 04 08 4:00 271.9 0.0 0.00 24.4 -4.2 81.1 0.5
2018 04 08 5:00 272.7 0.0 0.00 23.8 -4.6 85.6 0.5
2018 04 08 6:00 273.2 0.0 0.00 24.3 -4.3 83.1 0.2
2018 04 08 7:00 272.5 0.0 0.00 24.9 -3.9 86 0.0
2018 04 08 8:00 270.4 0.0 0.00 28.3 -2.1 73.71 3.0
2018 04 08 9:00 269.3 0.0 0.00 31.2 -0.4 60.73 5.4
2018 04 08 10:00 268.4 0.0 0.00 33.6 0.9 52.88 6.3
2018 04 08 11:00 267.7 0.0 0.00 36.2 2.3 45.42 6.4
2018 04 08 12:00 267.0 0.0 0.00 38.1 3.4 42.17 5.5
2018 04 08 13:00 266.9 0.0 0.00 39.0 3.9 37.13 6.0
2018 04 08 14:00 266.7 0.0 0.00 40.0 4.4 34.88 5.3
2018 04 08 15:00 266.8 0.0 0.00 40.2 4.6 34.39 5.5
2018 04 08 16:00 266.9 0.0 0.00 40.4 4.7 35.19 6.8
2018 04 08 17:00 266.9 0.0 0.00 39.9 4.4 37.59 5.7
2018 04 08 18:00 266.9 0.0 0.00 39.3 4.1 38.4 5.4
2018 04 08 19:00 267.5 0.0 0.00 38.6 3.6 41.1 4.2
2018 04 08 20:00 268.1 0.0 0.00 36.6 2.6 54.34 5.2
2018 04 08 21:00 278.0 0.0 0.00 33.3 0.7 78.89 1.8
2018 04 08 22:00 Wet 296.9 0.0 0.00 31.5 -0.3 93.5 0.5
2018 04 08 23:00 Wet 323.3 0.0 0.00 31.3 -0.4 95.5 0.9
2018 04 08 24:00 Wet 461.3 0.0 0.00 31.6 -0.2 95.6 1.7
2018 04 09 1:00 Wet 411.9 0.0 0.00 31.7 -0.1 95.6 2.9
2018 04 09 2:00 Wet 320.0 0.0 0.00 31.9 -0.0 94.9 3.6
2018 04 09 3:00 Wet 284.5 0.0 0.00 32.2 0.1 93.8 4.6
2018 04 09 4:00 274.8 0.0 0.00 32.3 0.2 92.7 2.8
2018 04 09 5:00 274.9 0.0 0.00 32.5 0.3 92.3 0.6
2018 04 09 6:00 274.5 0.0 0.00 32.7 0.4 92.1 1.0
2018 04 09 7:00 274.1 0.0 0.00 33.0 0.6 92.2 2.7
2018 04 09 8:00 272.4 0.0 0.00 33.9 1.0 91.1 4.5
2018 04 09 9:00 271.6 0.0 0.00 35.0 1.7 88.2 5.5
2018 04 09 10:00 270.8 0.0 0.00 36.5 2.5 83.4 6.7
2018 04 09 11:00 270.2 0.0 0.00 38.2 3.4 78.29 6.2
2018 04 09 12:00 268.8 0.0 0.00 41.1 5.1 69.14 5.4
2018 04 09 13:00 268.5 0.0 0.00 42.7 6.0 59.1 4.5
2018 04 09 14:00 268.2 0.0 0.00 44.1 6.7 54.42 3.9
2018 04 09 15:00 267.6 0.0 0.00 45.5 7.5 50.96 5.6
2018 04 09 16:00 268.2 0.0 0.00 44.1 6.7 55.77 7.0
2018 04 09 17:00 268.7 0.0 0.00 42.9 6.1 58.43 7.1
2018 04 09 18:00 268.9 0.0 0.00 41.0 5.0 63.2 7.2
2018 04 09 19:00 269.0 0.0 0.00 39.5 4.1 63.35 5.7
2018 04 09 20:00 269.4 0.0 0.00 38.5 3.6 66.51 4.3
2018 04 09 21:00 269.6 0.0 0.00 37.9 3.3 70.75 4.0
2018 04 09 22:00 269.7 0.0 0.00 37.4 3.0 73 3.3
2018 04 09 23:00 270.1 0.0 0.00 37.0 2.8 74.07 2.3
2018 04 09 24:00 270.0 0.0 0.00 36.6 2.6 72.71 4.2
2018 04 10 1:00 269.7 0.0 0.00 35.9 2.2 70.03 3.5
2018 04 10 2:00 269.8 0.0 0.00 35.6 2.0 71.1 0.5
2018 04 10 3:00 270.3 0.0 0.00 35.4 1.9 73.84 0.7
2018 04 10 4:00 270.8 0.0 0.00 35.1 1.7 77.56 0.0
2018 04 10 5:00 271.0 0.0 0.00 34.9 1.6 78.28 0.0
2018 04 10 6:00 271.0 0.0 0.00 34.7 1.5 79.77 1.2
2018 04 10 7:00 270.6 0.0 0.00 35.1 1.7 77.98 3.2
2018 04 10 8:00 270.0 0.0 0.00 36.0 2.2 70.26 4.3
2018 04 10 9:00 269.4 0.0 0.00 36.9 2.7 65.01 3.5
2018 04 10 10:00 268.6 0.0 0.00 37.9 3.3 57.79 2.6
2018 04 10 11:00 267.8 0.0 0.00 38.7 3.7 54.58 2.9
2018 04 10 12:00 268.1 0.0 0.00 39.2 4.0 57.51 4.0
2018 04 10 13:00 267.2 0.0 0.00 41.7 5.4 53.27 3.9
2018 04 10 14:00 267.2 0.0 0.00 44.6 7.0 48.24 5.4
2018 04 10 15:00 267.5 0.0 0.00 47.4 8.5 42.96 4.4
2018 04 10 16:00 267.5 0.0 0.00 49.4 9.7 40.21 3.2
2018 04 10 17:00 267.3 0.0 0.00 51.1 10.6 38.17 2.3
2018 04 10 18:00 267.1 0.0 0.00 50.9 10.5 38.52 4.7
2018 04 10 19:00 267.8 0.0 0.00 49.2 9.6 41.12 2.1
2018 04 10 20:00 268.2 0.0 0.00 46.7 8.2 46.17 0.4
2018 04 10 21:00 268.6 0.0 0.00 45.3 7.4 52.69 0.1
2018 04 10 22:00 Wet 376.0 0.0 0.25 43.3 6.3 67.9 1.8
2018 04 10 23:00 Wet 297.3 0.0 0.00 43.5 6.4 66.04 1.4
2018 04 10 24:00 271.0 0.0 0.00 43.2 6.2 68.25 2.9
2018 04 11 1:00 270.3 0.0 0.00 42.5 5.8 71.46 2.9
2018 04 11 2:00 270.6 0.0 0.00 41.4 5.2 72.66 1.6
2018 04 11 3:00 270.6 0.0 0.00 41.1 5.0 71.98 2.6
2018 04 11 4:00 270.1 0.0 0.00 42.8 6.0 63.14 2.6
2018 04 11 5:00 269.6 0.0 0.00 45.3 7.4 56.99 3.7
2018 04 11 6:00 269.0 0.0 0.00 47.6 8.7 51.91 7.3
2018 04 11 7:00 268.5 0.0 0.00 49.1 9.5 49.04 7.8
2018 04 11 8:00 267.5 0.0 0.00 53.3 11.8 43.24 9.4
2018 04 11 9:00 266.5 0.0 0.00 57.5 14.2 38.43 10.6
2018 04 11 10:00 265.8 0.0 0.00 62.3 16.9 33.89 10.5
2018 04 11 11:00 265.3 0.0 0.00 65.7 18.7 30.91 10.7
2018 04 11 12:00 264.9 0.0 0.00 68.8 20.4 28.4 10.5
2018 04 11 13:00 264.7 0.0 0.00 70.8 21.6 27.48 11.3
2018 04 11 14:00 264.7 0.0 0.00 72.1 22.3 26.37 11.6
2018 04 11 15:00 264.8 0.0 0.00 73.6 23.1 24.9 13.3
2018 04 11 16:00 264.7 0.0 0.00 74.1 23.4 24.88 13.4
2018 04 11 17:00 264.7 0.0 0.00 73.6 23.1 25.73 13.5
2018 04 11 18:00 264.8 0.0 0.00 71.9 22.2 27.69 12.5
2018 04 11 19:00 265.3 0.0 0.00 68.9 20.5 29.75 10.3
2018 04 11 20:00 265.8 0.0 0.00 66.0 18.9 33.2 6.5
2018 04 11 21:00 265.7 0.0 0.00 65.8 18.8 32.26 8.5
2018 04 11 22:00 265.5 0.0 0.00 65.0 18.3 32.74 9.7
2018 04 11 23:00 266.1 0.0 0.00 62.7 17.1 35.69 9.0
2018 04 11 24:00 266.1 0.0 0.00 61.7 16.5 37.8 9.3
2018 04 12 1:00 266.1 0.0 0.00 61.1 16.2 38.99 8.0
2018 04 12 2:00 266.1 0.0 0.00 61.2 16.2 38.72 8.2
2018 04 12 3:00 266.1 0.0 0.00 60.9 16.0 39.35 8.7
2018 04 12 4:00 266.2 0.0 0.00 60.7 15.9 40.46 8.6
2018 04 12 5:00 266.7 0.0 0.00 60.1 15.6 42.36 8.1
2018 04 12 6:00 266.8 0.0 0.00 59.5 15.3 44.16 7.0
2018 04 12 7:00 266.2 0.0 0.00 60.2 15.7 44.6 6.8
2018 04 12 8:00 265.4 0.0 0.00 63.5 17.5 41.95 7.2
2018 04 12 9:00 265.2 0.0 0.00 67.6 19.8 39.61 9.1
2018 04 12 10:00 264.7 0.0 0.00 71.7 22.1 37.74 9.4
2018 04 12 11:00 264.6 0.0 0.00 75.1 24.0 35.57 9.1
2018 04 12 12:00 264.6 0.0 0.00 77.2 25.1 34.15 7.9
2018 04 12 13:00 264.6 0.0 0.00 79.3 26.3 32.71 10.2
2018 04 12 14:00 264.6 0.0 0.00 82.0 27.8 30.17 11.1
2018 04 12 15:00 264.7 0.0 0.00 84.4 29.1 27.74 13.0
2018 04 12 16:00 264.6 0.0 0.00 85.5 29.7 25.58 13.0
2018 04 12 17:00 264.6 0.0 0.00 85.5 29.7 23.56 12.6
2018 04 12 18:00 264.6 0.0 0.00 83.6 28.7 23.92 12.4
2018 04 12 19:00 264.6 0.0 0.00 80.0 26.7 24.93 9.8
2018 04 12 20:00 264.7 0.0 0.00 75.2 24.0 27.25 7.1
2018 04 12 21:00 264.7 0.0 0.00 73.0 22.8 28.97 7.9
2018 04 12 22:00 264.8 0.0 0.00 71.1 21.7 30.44 7.2
2018 04 12 23:00 265.1 0.0 0.00 70.3 21.3 32.2 8.2
2018 04 12 24:00 265.5 0.0 0.00 68.4 20.2 37.32 5.8
2018 04 13 1:00 266.1 0.0 0.00 65.9 18.9 42.5 3.1
2018 04 13 2:00 266.6 0.0 0.00 64.3 17.9 47.03 2.5
2018 04 13 3:00 266.8 0.0 0.00 62.8 17.1 51.62 3.7
2018 04 13 4:00 267.4 0.0 0.00 61.0 16.1 57.79 4.4
2018 04 13 5:00 267.4 0.0 0.00 63.1 17.3 60.31 6.4
2018 04 13 6:00 267.9 0.0 0.00 64.3 17.9 61.04 7.0
2018 04 13 7:00 267.6 0.0 0.00 65.4 18.5 59.37 7.7
2018 04 13 8:00 267.1 0.0 0.00 67.4 19.7 55.57 6.7
2018 04 13 9:00 266.7 0.0 0.00 69.4 20.8 51.57 10.3
2018 04 13 10:00 268.7 0.0 0.00 69.0 20.6 54.68 12.3
2018 04 13 11:00 267.7 0.0 0.00 68.2 20.1 59.24 10.4
2018 04 13 12:00 268.5 0.0 0.00 68.2 20.1 61.93 9.4
2018 04 13 13:00 267.4 0.0 0.00 70.3 21.3 58.53 7.7
2018 04 13 14:00 266.7 0.0 0.00 76.0 24.5 49.81 9.6
2018 04 13 15:00 266.6 0.0 0.00 78.2 25.7 47.05 13.5
2018 04 13 16:00 266.7 0.0 0.00 76.2 24.6 51.21 12.4
2018 04 13 17:00 267.3 0.0 0.00 74.7 23.7 54.31 12.3
2018 04 13 18:00 268.6 0.0 0.00 73.2 22.9 58.81 9.7
2018 04 13 19:00 268.6 0.0 0.00 71.0 21.7 65.13 7.5
2018 04 13 20:00 Wet 362.7 0.1 1.27 68.1 20.1 76.43 6.2
2018 04 13 21:00 Wet 546.9 0.7 18.54 63.0 17.2 91.4 6.1
2018 04 13 22:00 Wet 565.8 0.7 17.02 59.2 15.1 95.6 5.9
2018 04 13 23:00 Wet 508.6 0.1 3.56 59.0 15.0 94.5 6.5
2018 04 13 24:00 Wet 503.2 0.2 4.57 59.6 15.3 93.5 8.1
2018 04 14 1:00 Wet 331.0 0.0 0.25 59.9 15.5 90 9.5
2018 04 14 2:00 275.0 0.0 0.00 59.1 15.1 89.8 3.2
2018 04 14 3:00 276.1 0.0 0.00 58.2 14.5 91.5 2.8
2018 04 14 4:00 275.6 0.0 0.00 57.5 14.2 92.5 3.9
2018 04 14 5:00 272.8 0.0 0.00 58.0 14.4 89.1 7.3
2018 04 14 6:00 272.2 0.0 0.00 58.5 14.7 85.1 7.8
2018 04 14 7:00 271.9 0.0 0.00 59.0 15.0 82.1 9.0
2018 04 14 8:00 271.2 0.0 0.00 60.3 15.7 78.45 10.6
2018 04 14 9:00 271.3 0.0 0.00 60.4 15.8 79.15 9.2
2018 04 14 10:00 Wet 333.5 0.0 0.51 54.3 12.4 83.5 9.7
2018 04 14 11:00 Wet 388.1 0.0 0.25 49.0 9.4 89.4 8.1
2018 04 14 12:00 Wet 418.0 0.0 0.51 47.8 8.8 92.2 7.4
2018 04 14 13:00 Wet 360.4 0.0 0.25 48.9 9.4 89.9 4.6
2018 04 14 14:00 Wet 305.4 0.0 0.00 50.3 10.2 84.5 4.4
2018 04 14 15:00 Wet 409.3 0.0 0.76 49.8 9.9 84.4 4.6
2018 04 14 16:00 Wet 311.2 0.0 0.00 50.0 10.0 81.7 3.0
2018 04 14 17:00 271.9 0.0 0.00 52.3 11.3 74.75 2.0
2018 04 14 18:00 269.4 0.0 0.00 53.5 12.0 56.6 5.0
2018 04 14 19:00 269.5 0.0 0.00 50.1 10.1 52.51 11.7
2018 04 14 20:00 269.4 0.0 0.00 46.0 7.8 55.78 8.9
2018 04 14 21:00 269.6 0.0 0.00 43.6 6.5 58.82 8.8
2018 04 14 22:00 269.7 0.0 0.00 41.3 5.2 61.5 6.4
2018 04 14 23:00 270.3 0.0 0.00 39.5 4.2 66.01 2.4
2018 04 14 24:00 270.8 0.0 0.00 38.7 3.7 67.63 0.2
2018 04 15 1:00 279.5 0.0 0.00 36.3 2.4 81 0.1
2018 04 15 2:00 271.6 0.0 0.00 37.2 2.9 81.2 1.3
2018 04 15 3:00 271.0 0.0 0.00 38.8 3.8 77.9 2.1
2018 04 15 4:00 Wet 286.3 0.0 0.25 39.0 3.9 87.9 7.4
2018 04 15 5:00 Wet 302.6 0.0 0.00 36.1 2.3 85 11.4
2018 04 15 6:00 272.2 0.0 0.00 35.5 1.9 84.7 9.1
2018 04 15 7:00 271.3 0.0 0.00 35.4 1.9 82.4 8.6
2018 04 15 8:00 271.2 0.0 0.00 34.9 1.6 80.1 9.7
2018 04 15 9:00 272.9 0.0 0.00 35.0 1.6 84.4 8.9
2018 04 15 10:00 272.3 0.0 0.00 36.4 2.4 83.2 10.3
2018 04 15 11:00 271.8 0.0 0.00 37.4 3.0 85.1 11.0
2018 04 15 12:00 Wet 287.0 0.0 0.00 38.5 3.6 86 11.3
2018 04 15 13:00 Wet 289.8 0.0 0.00 38.1 3.4 81.2 14.5
2018 04 15 14:00 271.1 0.0 0.00 35.7 2.1 78.36 16.4
2018 04 15 15:00 270.3 0.0 0.00 34.5 1.4 73.03 15.8
2018 04 15 16:00 270.4 0.0 0.00 34.2 1.2 69.3 15.3
2018 04 15 17:00 270.4 0.0 0.00 34.1 1.2 65.93 14.4
2018 04 15 18:00 270.4 0.0 0.00 33.3 0.7 67.02 14.7
2018 04 15 19:00 270.4 0.0 0.00 32.7 0.4 66.67 13.4
2018 04 15 20:00 270.4 0.0 0.00 32.2 0.1 66.46 14.0
2018 04 15 21:00 270.4 0.0 0.00 31.3 -0.4 72.22 12.9
2018 04 15 22:00 270.4 0.0 0.00 30.6 -0.8 71.74 13.8
2018 04 15 23:00 270.4 0.0 0.00 30.2 -1.0 72.35 12.6
2018 04 15 24:00 270.4 0.0 0.00 29.9 -1.2 71.12 11.7
2018 04 16 1:00 270.4 0.0 0.00 29.5 -1.4 70.19 12.2
2018 04 16 2:00 270.4 0.0 0.00 29.0 -1.7 69.83 10.6
2018 04 16 3:00 270.4 0.0 0.00 29.4 -1.4 68.78 11.8
2018 04 16 4:00 270.4 0.0 0.00 29.6 -1.3 67.58 11.7
2018 04 16 5:00 270.4 0.0 0.00 29.7 -1.3 66.55 12.5
2018 04 16 6:00 270.2 0.0 0.00 29.8 -1.2 64.39 12.8
2018 04 16 7:00 269.7 0.0 0.00 29.6 -1.4 62.37 15.5
2018 04 16 8:00 269.6 0.0 0.00 29.3 -1.5 58 16.0
2018 04 16 9:00 269.2 0.0 0.00 30.0 -1.1 57 16.9
2018 04 16 10:00 269.0 0.0 0.00 31.1 -0.5 55.81 16.2
2018 04 16 11:00 268.7 0.0 0.00 32.9 0.5 52.79 15.8
2018 04 16 12:00 268.3 0.0 0.00 35.9 2.2 48.42 16.1
2018 04 16 13:00 268.0 0.0 0.00 38.7 3.7 45.53 16.7
2018 04 16 14:00 267.6 0.0 0.00 41.2 5.1 43.62 13.9
2018 04 16 15:00 267.6 0.0 0.00 42.9 6.1 41.88 14.0
2018 04 16 16:00 267.5 0.0 0.00 44.5 6.9 39.83 14.2
2018 04 16 17:00 267.5 0.0 0.00 45.5 7.5 38.19 12.4
2018 04 16 18:00 267.5 0.0 0.00 45.8 7.7 37.58 11.6
2018 04 16 19:00 267.6 0.0 0.00 44.6 7.0 40.99 6.6
2018 04 16 20:00 268.5 0.0 0.00 41.8 5.5 46.62 2.5
2018 04 16 21:00 269.2 0.0 0.00 39.6 4.2 51.29 0.9
2018 04 16 22:00 270.5 0.0 0.00 36.2 2.3 63.46 0.6
2018 04 16 23:00 270.9 0.0 0.00 34.6 1.5 70.25 1.9
2018 04 16 24:00 272.2 0.0 0.00 33.2 0.7 73.03 1.4
2018 04 17 1:00 271.8 0.0 0.00 33.1 0.6 70.19 1.5
2018 04 17 2:00 271.7 0.0 0.00 32.5 0.3 69.51 1.1
2018 04 17 3:00 281.7 0.0 0.00 30.4 -0.9 83.1 0.4
2018 04 17 4:00 278.3 0.0 0.00 29.5 -1.4 80.2 0.9
2018 04 17 5:00 Wet 288.5 0.0 0.00 27.7 -2.4 88.4 0.0
2018 04 17 6:00 Wet 290.3 0.0 0.00 28.3 -2.1 87.1 1.4
2018 04 17 7:00 269.9 0.0 0.00 29.7 -1.3 87 0.6
2018 04 17 8:00 268.5 0.0 0.00 34.4 1.3 66.76 3.7
2018 04 17 9:00 267.2 0.0 0.00 36.6 2.6 62.09 2.8
2018 04 17 10:00 266.8 0.0 0.00 39.7 4.3 56.38 3.9
2018 04 17 11:00 266.4 0.0 0.00 42.4 5.8 53.64 3.8
2018 04 17 12:00 266.3 0.0 0.00 45.5 7.5 49.56 4.0
2018 04 17 13:00 266.5 0.0 0.00 48.6 9.2 47.03 4.6
2018 04 17 14:00 266.8 0.0 0.00 51.3 10.7 45.01 5.5
2018 04 17 15:00 267.3 0.0 0.00 53.4 11.9 43.44 4.7
2018 04 17 16:00 267.0 0.0 0.00 55.6 13.1 41.49 5.1
2018 04 17 17:00 266.8 0.0 0.00 56.6 13.7 40.63 7.3
2018 04 17 18:00 267.0 0.0 0.00 56.3 13.5 41.31 6.7
2018 04 17 19:00 267.5 0.0 0.00 54.2 12.4 44.85 6.1
2018 04 17 20:00 267.7 0.0 0.00 52.4 11.3 48.04 5.6
2018 04 17 21:00 268.3 0.0 0.00 51.0 10.6 57.17 7.1
2018 04 17 22:00 268.8 0.0 0.00 49.0 9.4 62.06 5.0
2018 04 17 23:00 269.2 0.0 0.00 47.3 8.5 66.06 4.5
2018 04 17 24:00 269.6 0.0 0.00 46.3 7.9 68.42 6.8
2018 04 18 1:00 269.6 0.0 0.00 45.1 7.3 70.17 7.3
2018 04 18 2:00 269.6 0.0 0.00 44.5 7.0 69.14 8.9
2018 04 18 3:00 269.6 0.0 0.00 44.3 6.8 67.79 9.5
2018 04 18 4:00 269.6 0.0 0.00 43.6 6.5 69.08 9.3
2018 04 18 5:00 269.6 0.0 0.00 43.1 6.1 70.7 10.0
2018 04 18 6:00 269.6 0.0 0.00 43.0 6.1 71.52 10.1
2018 04 18 7:00 269.4 0.0 0.00 42.8 6.0 72.98 9.7
2018 04 18 8:00 268.6 0.0 0.00 45.5 7.5 69.57 8.1
2018 04 18 9:00 267.6 0.0 0.00 52.0 11.1 62.36 7.1
2018 04 18 10:00 267.5 0.0 0.00 59.5 15.3 57.22 14.0
2018 04 18 11:00 267.4 0.0 0.00 59.9 15.5 50.92 18.3
2018 04 18 12:00 266.9 0.0 0.00 58.9 14.9 46.97 18.6
2018 04 18 13:00 266.8 0.0 0.00 58.8 14.9 43.65 18.6
2018 04 18 14:00 266.8 0.0 0.00 57.6 14.2 43.16 18.3
2018 04 18 15:00 267.2 0.0 0.00 52.8 11.5 49.44 19.8
2018 04 18 16:00 267.7 0.0 0.00 47.8 8.8 57.41 17.5
2018 04 18 17:00 268.1 0.0 0.00 45.5 7.5 60.44 15.7
2018 04 18 18:00 268.2 0.0 0.00 42.9 6.1 59.57 17.4
2018 04 18 19:00 268.3 0.0 0.00 41.3 5.2 59.34 18.4
2018 04 18 20:00 268.3 0.0 0.00 40.5 4.7 56.16 15.1
2018 04 18 21:00 268.3 0.0 0.00 39.6 4.2 52.87 14.7
2018 04 18 22:00 268.3 0.0 0.00 38.7 3.7 51.68 14.4
2018 04 18 23:00 268.3 0.0 0.00 38.0 3.3 53.52 13.2
2018 04 18 24:00 268.3 0.0 0.00 37.5 3.0 57.25 11.3
2018 04 19 1:00 268.3 0.0 0.00 36.8 2.7 58.25 11.5
2018 04 19 2:00 268.7 0.0 0.00 35.7 2.1 62.32 9.8
2018 04 19 3:00 269.0 0.0 0.00 35.2 1.8 64.62 10.1
2018 04 19 4:00 269.0 0.0 0.00 34.3 1.3 66.57 9.2
2018 04 19 5:00 269.0 0.0 0.00 34.1 1.1 67.28 6.7
2018 04 19 6:00 269.0 0.0 0.00 34.0 1.1 69.05 7.0
2018 04 19 7:00 269.0 0.0 0.00 34.4 1.4 70.74 8.4
2018 04 19 8:00 268.8 0.0 0.00 35.9 2.2 69.6 7.8
2018 04 19 9:00 268.0 0.0 0.00 39.0 3.9 62.85 6.6
2018 04 19 10:00 267.0 0.0 0.00 43.2 6.2 54.58 5.9
2018 04 19 11:00 267.0 0.0 0.00 44.7 7.1 51.37 6.8
2018 04 19 12:00 266.6 0.0 0.00 47.1 8.4 47.8 6.8
2018 04 19 13:00 266.3 0.0 0.00 49.9 9.9 42.06 7.4
2018 04 19 14:00 266.3 0.0 0.00 51.9 11.1 40.4 5.7
2018 04 19 15:00 266.8 0.0 0.00 53.8 12.1 37.23 5.8
2018 04 19 16:00 266.7 0.0 0.00 55.0 12.8 34.45 4.6
2018 04 19 17:00 266.1 0.0 0.00 55.6 13.1 32.51 4.7
2018 04 19 18:00 266.1 0.0 0.00 55.7 13.1 31.55 4.9
2018 04 19 19:00 266.4 0.0 0.00 53.6 12.0 33.84 3.3
2018 04 19 20:00 267.1 0.0 0.00 50.2 10.1 39.7 0.6
2018 04 19 21:00 268.1 0.0 0.00 46.2 7.9 49.17 0.0
2018 04 19 22:00 269.9 0.0 0.00 41.8 5.5 63.73 0.3
2018 04 19 23:00 272.3 0.0 0.00 39.2 4.0 73.86 0.1
2018 04 19 24:00 274.2 0.0 0.00 37.1 2.8 78.71 0.5
2018 04 20 1:00 274.5 0.0 0.00 36.6 2.5 77.36 0.7
2018 04 20 2:00 Wet 303.0 0.0 0.00 33.7 0.9 85.2 0.0
2018 04 20 3:00 Wet 312.1 0.0 0.00 31.8 -0.1 89.2 0.3
2018 04 20 4:00 278.2 0.0 0.00 31.8 -0.1 89.3 1.2
2018 04 20 5:00 279.9 0.0 0.00 32.1 0.1 82.5 1.5
2018 04 20 6:00 281.2 0.0 0.00 29.7 -1.3 87.6 0.7
2018 04 20 7:00 Wet 321.8 0.0 0.00 34.2 1.2 81.7 1.9
2018 04 20 8:00 271.5 0.0 0.00 42.5 5.8 54.77 2.0
2018 04 20 9:00 266.1 0.0 0.00 46.8 8.2 36.86 7.1
2018 04 20 10:00 265.1 0.0 0.00 51.0 10.6 26.67 8.0
2018 04 20 11:00 264.5 0.0 0.00 53.7 12.0 18.51 8.3
2018 04 20 12:00 264.1 0.0 0.00 55.9 13.3 18.77 8.0
2018 04 20 13:00 264.2 0.0 0.00 57.4 14.1 18.59 8.8
2018 04 20 14:00 264.3 0.0 0.00 58.4 14.7 17.8 9.7
2018 04 20 15:00 264.4 0.0 0.00 59.8 15.4 17.36 9.9
2018 04 20 16:00 264.3 0.0 0.00 59.6 15.4 17.56 8.8
2018 04 20 17:00 264.6 0.0 0.00 59.5 15.3 18.7 8.9
2018 04 20 18:00 264.7 0.0 0.00 58.5 14.7 20.23 7.8
2018 04 20 19:00 264.7 0.0 0.00 55.9 13.3 23.54 6.5
2018 04 20 20:00 265.4 0.0 0.00 53.4 11.9 27.49 3.6
2018 04 20 21:00 265.5 0.0 0.00 51.6 10.9 30.15 1.7
2018 04 20 22:00 266.1 0.0 0.00 49.7 9.8 33.95 0.6
2018 04 20 23:00 266.5 0.0 0.00 47.5 8.6 39.6 0.5
2018 04 20 24:00 267.2 0.0 0.00 45.3 7.4 42.93 1.7
2018 04 21 1:00 267.4 0.0 0.00 44.2 6.8 43.95 0.5
2018 04 21 2:00 267.7 0.0 0.00 42.7 5.9 49.44 0.1
2018 04 21 3:00 268.0 0.0 0.00 42.1 5.6 54.87 0.1
2018 04 21 4:00 268.7 0.0 0.00 41.2 5.1 60.16 0.9
2018 04 21 5:00 268.8 0.0 0.00 41.7 5.4 56.05 0.6
2018 04 21 6:00 269.8 0.0 0.00 40.4 4.7 61.32 2.5
2018 04 21 7:00 267.7 0.0 0.00 45.6 7.5 49.93 4.2
2018 04 21 8:00 267.2 0.0 0.00 48.0 8.9 48.41 4.4
2018 04 21 9:00 266.6 0.0 0.00 50.5 10.3 43.25 6.2
2018 04 21 10:00 266.0 0.0 0.00 54.0 12.2 38.01 7.9
2018 04 21 11:00 265.2 0.0 0.00 57.5 14.2 31.13 10.8
2018 04 21 12:00 264.7 0.0 0.00 60.0 15.6 26.75 10.9
2018 04 21 13:00 264.7 0.0 0.00 61.5 16.4 23.9 11.4
2018 04 21 14:00 264.7 0.0 0.00 61.9 16.6 24.94 10.9
2018 04 21 15:00 264.7 0.0 0.00 62.5 17.0 24.29 11.4
2018 04 21 16:00 264.7 0.0 0.00 63.8 17.6 24.52 11.1
2018 04 21 17:00 264.7 0.0 0.00 62.5 17.0 27.68 8.4
2018 04 21 18:00 265.2 0.0 0.00 61.2 16.2 29.43 7.2
2018 04 21 19:00 265.4 0.0 0.00 59.9 15.5 31.73 5.2
2018 04 21 20:00 265.4 0.0 0.00 58.7 14.9 33.32 5.4
2018 04 21 21:00 265.4 0.0 0.00 57.8 14.4 34.54 7.0
2018 04 21 22:00 265.9 0.0 0.00 57.2 14.0 35.6 8.1
2018 04 21 23:00 265.7 0.0 0.00 56.8 13.8 35.72 6.7
2018 04 21 24:00 266.1 0.0 0.00 56.1 13.4 37.08 7.2
2018 04 22 1:00 266.1 0.0 0.00 55.0 12.8 39.15 6.2
2018 04 22 2:00 266.1 0.0 0.00 54.3 12.4 39.86 7.3
2018 04 22 3:00 266.1 0.0 0.00 53.8 12.1 40.11 7.0
2018 04 22 4:00 266.1 0.0 0.00 53.2 11.8 40.42 6.3
2018 04 22 5:00 266.1 0.0 0.00 52.8 11.5 40.62 7.2
2018 04 22 6:00 279.9 0.0 0.00 52.0 11.1 45.27 5.8
2018 04 22 7:00 Wet 336.0 0.0 0.00 50.4 10.2 57.08 3.9
2018 04 22 8:00 275.0 0.0 0.00 50.4 10.2 56.82 5.0
2018 04 22 9:00 267.2 0.0 0.00 53.6 12.0 52.9 6.7
2018 04 22 10:00 266.1 0.0 0.00 58.0 14.4 49.51 8.9
2018 04 22 11:00 266.8 0.0 0.00 59.5 15.3 50.15 8.9
2018 04 22 12:00 266.6 0.0 0.00 61.3 16.3 46.54 8.7
2018 04 22 13:00 267.3 0.0 0.00 59.6 15.4 44.25 9.0
2018 04 22 14:00 266.7 0.0 0.00 56.5 13.6 44.65 7.8
2018 04 22 15:00 266.4 0.0 0.00 56.6 13.6 41.11 6.4
2018 04 22 16:00 271.9 0.0 0.00 56.9 13.8 44.12 4.2
2018 04 22 17:00 Wet 350.2 0.0 0.00 56.6 13.7 53.86 6.0
2018 04 22 18:00 276.7 0.0 0.00 56.2 13.4 56.67 5.1
2018 04 22 19:00 Wet 330.6 0.0 0.00 56.5 13.6 56.14 5.5
2018 04 22 20:00 Wet 315.8 0.0 0.00 55.0 12.8 63.8 2.6
2018 04 22 21:00 270.5 0.0 0.00 56.5 13.6 55.68 4.1
2018 04 22 22:00 271.1 0.0 0.00 57.5 14.2 53.64 4.1
2018 04 22 23:00 269.5 0.0 0.00 57.2 14.0 57.49 5.8
2018 04 22 24:00 268.8 0.0 0.00 56.9 13.9 62.91 6.5
2018 04 23 1:00 268.8 0.0 0.00 55.9 13.3 65.83 4.0
2018 04 23 2:00 269.7 0.0 0.00 55.8 13.2 56.26 4.0
2018 04 23 3:00 268.0 0.0 0.00 56.1 13.4 42.4 7.0
2018 04 23 4:00 267.5 0.0 0.00 55.1 12.8 42.69 6.5
2018 04 23 5:00 267.6 0.0 0.00 53.9 12.2 43.49 7.6
2018 04 23 6:00 269.6 0.0 0.00 53.1 11.7 44.62 7.9
2018 04 23 7:00 279.0 0.0 0.00 52.5 11.4 46.29 5.9
2018 04 23 8:00 272.8 0.0 0.00 53.2 11.8 46.02 7.0
2018 04 23 9:00 266.8 0.0 0.00 55.4 13.0 44.09 10.0
2018 04 23 10:00 266.8 0.0 0.00 56.9 13.8 46.97 9.9
2018 04 23 11:00 272.6 0.0 0.00 57.7 14.3 56.02 8.4
2018 04 23 12:00 267.6 0.0 0.00 60.0 15.5 58.76 8.9
2018 04 23 13:00 268.1 0.0 0.00 59.7 15.4 69.85 8.2
2018 04 23 14:00 267.9 0.0 0.00 61.8 16.6 67.63 9.1
2018 04 23 15:00 267.9 0.0 0.00 63.7 17.6 61.93 10.8
2018 04 23 16:00 268.0 0.0 0.00 63.6 17.6 61.06 9.3
2018 04 23 17:00 268.5 0.0 0.00 62.1 16.7 66.14 7.7
2018 04 23 18:00 268.8 0.0 0.00 60.6 15.9 70.33 7.3
2018 04 23 19:00 269.2 0.0 0.00 59.8 15.4 72.34 5.1
2018 04 23 20:00 269.5 0.0 0.00 58.9 15.0 74.54 5.5
2018 04 23 21:00 269.6 0.0 0.00 57.8 14.4 77.31 5.1
2018 04 23 22:00 277.8 0.0 0.00 56.6 13.7 82.8 5.3
2018 04 23 23:00 277.1 0.0 0.00 55.7 13.2 87.2 3.6
2018 04 23 24:00 Wet 307.6 0.0 0.00 55.4 13.0 89.8 2.6
2018 04 24 1:00 Wet 327.9 0.0 0.00 54.8 12.6 92.5 1.9
2018 04 24 2:00 Wet 303.7 0.0 0.00 54.6 12.6 92.2 2.4
2018 04 24 3:00 Wet 287.6 0.0 0.00 54.4 12.4 92.9 3.9
2018 04 24 4:00 272.5 0.0 0.00 54.7 12.6 90.3 4.4
2018 04 24 5:00 273.6 0.0 0.00 54.7 12.6 89.4 4.1
2018 04 24 6:00 273.3 0.0 0.00 54.3 12.4 91.2 4.6
2018 04 24 7:00 272.2 0.0 0.00 55.0 12.8 89.7 4.8
2018 04 24 8:00 271.5 0.0 0.00 56.0 13.3 85.5 6.4
2018 04 24 9:00 270.7 0.0 0.00 57.7 14.3 78.93 6.9
2018 04 24 10:00 269.5 0.0 0.00 60.2 15.6 70.79 7.6
2018 04 24 11:00 268.4 0.0 0.00 63.2 17.4 62.62 8.3
2018 04 24 12:00 267.4 0.0 0.00 66.1 18.9 50.17 9.6
2018 04 24 13:00 266.9 0.0 0.00 67.7 19.8 43.28 8.9
2018 04 24 14:00 266.6 0.0 0.00 69.2 20.7 42.02 8.2
2018 04 24 15:00 266.7 0.0 0.00 69.3 20.7 41.36 7.6
2018 04 24 16:00 266.3 0.0 0.00 70.9 21.6 37.97 7.0
2018 04 24 17:00 266.1 0.0 0.00 71.5 21.9 33.9 6.4
2018 04 24 18:00 266.0 0.0 0.00 71.5 22.0 32.49 5.8
2018 04 24 19:00 266.1 0.0 0.00 69.2 20.7 32.87 3.1
2018 04 24 20:00 266.4 0.0 0.00 65.4 18.5 36.39 1.0
2018 04 24 21:00 267.1 0.0 0.00 61.0 16.1 44.13 0.0
2018 04 24 22:00 267.7 0.0 0.00 57.7 14.3 46.35 0.3
2018 04 24 23:00 267.9 0.0 0.00 56.2 13.5 47.59 0.6
2018 04 24 24:00 268.0 0.0 0.00 54.9 12.7 48.36 1.2
2018 04 25 1:00 268.1 0.0 0.00 53.1 11.7 49.85 1.7
2018 04 25 2:00 268.2 0.0 0.00 51.5 10.8 53.38 2.1
2018 04 25 3:00 268.0 0.0 0.00 52.5 11.4 49.83 4.4
2018 04 25 4:00 268.4 0.0 0.00 51.2 10.7 55.89 2.9
2018 04 25 5:00 269.0 0.0 0.00 50.3 10.2 63 1.6
2018 04 25 6:00 269.5 0.0 0.00 50.5 10.3 69.82 2.2
2018 04 25 7:00 268.5 0.0 0.00 53.2 11.8 65.49 3.0
2018 04 25 8:00 267.6 0.0 0.00 56.7 13.7 54.8 3.5
2018 04 25 9:00 267.2 0.0 0.00 58.5 14.8 49.9 6.0
2018 04 25 10:00 266.8 0.0 0.00 59.6 15.3 49.99 6.1
2018 04 25 11:00 266.8 0.0 0.00 61.5 16.4 52.81 6.1
2018 04 25 12:00 267.4 0.0 0.00 61.7 16.5 59 5.2
2018 04 25 13:00 267.4 0.0 0.00 61.6 16.4 60.24 5.1
2018 04 25 14:00 267.5 0.0 0.00 61.1 16.2 61.16 4.0
2018 04 25 15:00 267.8 0.0 0.00 61.3 16.3 61 5.2
2018 04 25 16:00 268.1 0.0 0.00 60.9 16.0 60.05 4.3
2018 04 25 17:00 267.8 0.0 0.00 61.3 16.3 58.11 3.9
2018 04 25 18:00 268.1 0.0 0.00 60.7 15.9 58.3 4.9
2018 04 25 19:00 268.1 0.0 0.00 59.0 15.0 56.31 6.9
2018 04 25 20:00 268.1 0.0 0.00 57.4 14.1 54.56 7.1
2018 04 25 21:00 268.7 0.0 0.00 56.1 13.4 55.07 5.8
2018 04 25 22:00 274.2 0.0 0.00 54.6 12.6 62.31 3.9
2018 04 25 23:00 275.9 0.0 0.00 53.8 12.1 63.22 2.4
2018 04 25 24:00 281.8 0.0 0.00 52.9 11.6 65.83 1.9
2018 04 26 1:00 274.5 0.0 0.00 51.9 11.1 71.92 3.6
2018 04 26 2:00 270.2 0.0 0.00 51.3 10.7 76.66 3.4
2018 04 26 3:00 270.9 0.0 0.00 50.6 10.3 79.33 1.0
2018 04 26 4:00 271.1 0.0 0.00 50.0 10.0 82.4 4.0
2018 04 26 5:00 271.0 0.0 0.00 49.5 9.7 81.3 6.2
2018 04 26 6:00 270.8 0.0 0.00 49.1 9.5 79.1 2.1
2018 04 26 7:00 269.4 0.0 0.00 50.1 10.0 75.59 2.0
2018 04 26 8:00 267.2 0.0 0.00 54.3 12.4 60.26 1.8
2018 04 26 9:00 266.7 0.0 0.00 57.5 14.2 52.69 1.8
2018 04 26 10:00 265.5 0.0 0.00 59.4 15.2 49.77 2.7
2018 04 26 11:00 265.0 0.0 0.00 62.0 16.7 42.32 2.7
2018 04 26 12:00 265.0 0.0 0.00 63.8 17.7 40.61 4.9
2018 04 26 13:00 265.0 0.0 0.00 66.0 18.9 36.77 4.0
2018 04 26 14:00 264.9 0.0 0.00 68.2 20.1 33.11 4.8
2018 04 26 15:00 265.3 0.0 0.00 68.4 20.2 32.77 5.5
2018 04 26 16:00 265.4 0.0 0.00 68.3 20.2 31.92 7.3
2018 04 26 17:00 265.4 0.0 0.00 68.5 20.3 29.1 7.6
2018 04 26 18:00 265.4 0.0 0.00 67.5 19.7 28.72 5.6
2018 04 26 19:00 265.5 0.0 0.00 65.4 18.5 29.77 4.0
2018 04 26 20:00 266.1 0.0 0.00 62.3 16.8 33.94 1.9
2018 04 26 21:00 266.6 0.0 0.00 59.9 15.5 38.56 3.9
2018 04 26 22:00 266.8 0.0 0.00 58.5 14.7 41.92 5.0
2018 04 26 23:00 266.9 0.0 0.00 57.3 14.0 45.9 4.1
2018 04 26 24:00 267.5 0.0 0.00 55.9 13.3 50.72 3.3
2018 04 27 1:00 267.9 0.0 0.00 54.9 12.7 54.91 3.4
2018 04 27 2:00 268.5 0.0 0.00 52.2 11.2 61.95 4.6
2018 04 27 3:00 268.4 0.0 0.00 51.6 10.9 60.24 5.2
2018 04 27 4:00 268.4 0.0 0.00 50.4 10.2 59.64 6.4
2018 04 27 5:00 268.2 0.0 0.00 49.1 9.5 58.74 6.2
2018 04 27 6:00 268.1 0.0 0.00 47.6 8.7 57.54 6.3
2018 04 27 7:00 267.1 0.0 0.00 48.2 9.0 55.02 7.2
2018 04 27 8:00 266.5 0.0 0.00 51.1 10.6 49.36 8.9
2018 04 27 9:00 266.0 0.0 0.00 54.0 12.2 45.72 8.5
2018 04 27 10:00 265.4 0.0 0.00 57.3 14.1 41.27 8.7
2018 04 27 11:00 265.0 0.0 0.00 61.2 16.2 33.37 10.5
2018 04 27 12:00 264.7 0.0 0.00 63.8 17.7 27.41 9.7
2018 04 27 13:00 264.6 0.0 0.00 65.6 18.7 22.8 9.4
2018 04 27 14:00 264.1 0.0 0.00 67.5 19.7 19.11 9.1
2018 04 27 15:00 264.7 0.0 0.00 68.4 20.2 21.58 9.0
2018 04 27 16:00 264.7 0.0 0.00 69.0 20.5 23.22 9.8
2018 04 27 17:00 264.7 0.0 0.00 69.6 20.9 21.8 10.5
2018 04 27 18:00 264.7 0.0 0.00 69.0 20.6 23.42 9.8
2018 04 27 19:00 264.7 0.0 0.00 67.3 19.6 25.13 7.6
2018 04 27 20:00 264.9 0.0 0.00 64.9 18.3 27.8 6.4
2018 04 27 21:00 265.4 0.0 0.00 63.3 17.4 30.21 6.8
2018 04 27 22:00 265.4 0.0 0.00 62.8 17.1 31.4 7.5
2018 04 27 23:00 265.4 0.0 0.00 62.1 16.7 32.36 9.1
2018 04 27 24:00 265.4 0.0 0.00 59.4 15.2 32.16 5.3
2018 04 28 1:00 265.7 0.0 0.00 56.6 13.7 35.95 4.6
2018 04 28 2:00 266.3 0.0 0.00 53.4 11.9 42.21 3.9
2018 04 28 3:00 266.8 0.0 0.00 51.1 10.6 47.77 3.8
2018 04 28 4:00 266.8 0.0 0.00 49.9 9.9 49.55 4.6
2018 04 28 5:00 266.9 0.0 0.00 49.0 9.4 50.88 5.3
2018 04 28 6:00 267.3 0.0 0.00 46.7 8.2 58.25 4.6
2018 04 28 7:00 266.6 0.0 0.00 47.2 8.5 57.98 5.7
2018 04 28 8:00 266.0 0.0 0.00 48.9 9.4 54.42 6.6
2018 04 28 9:00 265.6 0.0 0.00 51.0 10.6 50.94 7.4
2018 04 28 10:00 265.4 0.0 0.00 53.5 11.9 46.38 7.5
2018 04 28 11:00 265.0 0.0 0.00 55.1 12.9 41.72 6.7
2018 04 28 12:00 264.7 0.0 0.00 57.5 14.2 35.9 6.5
2018 04 28 13:00 264.7 0.0 0.00 59.1 15.1 31.49 6.0
2018 04 28 14:00 264.7 0.0 0.00 60.5 15.9 28.68 6.2
2018 04 28 15:00 264.8 0.0 0.00 61.0 16.1 27.82 6.3
2018 04 28 16:00 264.9 0.0 0.00 61.0 16.1 28.47 6.4
2018 04 28 17:00 264.7 0.0 0.00 61.3 16.3 28.77 6.1
2018 04 28 18:00 264.7 0.0 0.00 60.8 16.0 28.21 6.0
2018 04 28 19:00 265.0 0.0 0.00 59.1 15.0 28.75 3.6
2018 04 28 20:00 265.4 0.0 0.00 55.9 13.3 32.86 0.8
2018 04 28 21:00 266.5 0.0 0.00 51.6 10.9 42.7 0.3
2018 04 28 22:00 267.5 0.0 0.00 48.1 8.9 53.07 0.1
2018 04 28 23:00 269.5 0.0 0.00 44.7 7.1 67.22 0.3
2018 04 28 24:00 270.5 0.0 0.00 42.8 6.0 71.82 1.1
2018 04 29 1:00 272.1 0.0 0.00 41.0 5.0 75.48 0.3
2018 04 29 2:00 Wet 293.5 0.0 0.00 38.5 3.6 83.6 0.0
2018 04 29 3:00 Wet 325.7 0.0 0.00 36.6 2.5 89.8 0.1
2018 04 29 4:00 Wet 297.9 0.0 0.00 39.4 4.1 65.27 1.7
2018 04 29 5:00 269.9 0.0 0.00 39.9 4.4 58.79 2.7
2018 04 29 6:00 269.3 0.0 0.00 38.5 3.6 61.9 2.7
2018 04 29 7:00 267.5 0.0 0.00 42.2 5.7 53.52 4.3
2018 04 29 8:00 266.0 0.0 0.00 46.6 8.1 40.8 6.4
2018 04 29 9:00 264.9 0.0 0.00 51.1 10.6 32.96 7.2
2018 04 29 10:00 264.7 0.0 0.00 54.3 12.4 28.91 8.1
2018 04 29 11:00 264.1 0.0 0.00 56.1 13.4 25.08 8.5
2018 04 29 12:00 263.7 0.0 0.00 58.3 14.6 23.28 7.6
2018 04 29 13:00 263.6 0.0 0.00 59.9 15.5 21.11 8.0
2018 04 29 14:00 263.5 0.0 0.00 61.7 16.5 18.91 8.4
2018 04 29 15:00 264.1 0.0 0.00 63.1 17.3 18.57 8.6
2018 04 29 16:00 264.0 0.0 0.00 64.0 17.8 18.69 9.1
2018 04 29 17:00 264.0 0.0 0.00 64.0 17.8 19.2 8.4
2018 04 29 18:00 264.0 0.0 0.00 63.0 17.2 20.07 8.2
2018 04 29 19:00 264.4 0.0 0.00 60.5 15.8 23.33 5.5
2018 04 29 20:00 264.7 0.0 0.00 57.0 13.9 27.24 4.6
2018 04 29 21:00 265.1 0.0 0.00 55.1 12.8 28.75 3.6
2018 04 29 22:00 265.4 0.0 0.00 53.0 11.7 32 2.7
2018 04 29 23:00 265.5 0.0 0.00 51.8 11.0 33.5 3.1
2018 04 29 24:00 266.0 0.0 0.00 50.9 10.5 35.37 3.3
2018 04 30 1:00 266.1 0.0 0.00 49.6 9.8 37.89 3.2
2018 04 30 2:00 266.2 0.0 0.00 48.5 9.2 39.85 1.6
2018 04 30 3:00 266.2 0.0 0.00 47.8 8.8 41.52 1.9
2018 04 30 4:00 267.0 0.0 0.00 45.8 7.6 48.01 2.7
2018 04 30 5:00 267.7 0.0 0.00 44.0 6.6 55.27 2.7
2018 04 30 6:00 267.4 0.0 0.00 44.4 6.9 52.79 3.3
2018 04 30 7:00 266.3 0.0 0.00 47.3 8.5 49.7 4.7
2018 04 30 8:00 265.0 0.0 0.00 54.6 12.6 39.75 5.5
2018 04 30 9:00 264.3 0.0 0.00 61.8 16.6 30.23 7.1
2018 04 30 10:00 263.7 0.0 0.00 65.4 18.6 29.59 7.1
2018 04 30 11:00 263.5 0.0 0.00 69.5 20.8 28.84 7.3
2018 04 30 12:00 263.6 0.0 0.00 72.9 22.7 28.09 7.7
2018 04 30 13:00 263.6 0.0 0.00 76.4 24.6 27.38 7.1
2018 04 30 14:00 263.9 0.0 0.00 78.7 26.0 26.87 7.8
2018 04 30 15:00 264.5 0.0 0.00 80.2 26.8 24.52 9.6
2018 04 30 16:00 264.2 0.0 0.00 81.3 27.4 22.34 9.5
2018 04 30 17:00 263.6 0.0 0.00 81.4 27.4 20.33 9.8
2018 04 30 18:00 263.3 0.0 0.00 80.4 26.9 20.46 8.8
2018 04 30 19:00 263.8 0.0 0.00 77.1 25.1 22.63 6.5
2018 04 30 20:00 264.5 0.0 0.00 73.8 23.2 24.41 6.5
2018 04 30 21:00 264.7 0.0 0.00 71.7 22.1 27.56 8.2
2018 04 30 22:00 264.7 0.0 0.00 69.5 20.9 31.34 9.0
2018 04 30 23:00 265.0 0.0 0.00 67.0 19.4 35.4 8.2
2018 04 30 24:00 265.4 0.0 0.00 64.9 18.3 39.01 6.3
2018 05 01 1:00 265.9 0.0 0.00 62.5 16.9 43.21 4.0
2018 05 01 2:00 266.1 0.0 0.00 60.2 15.7 46.71 2.2
2018 05 01 3:00 266.8 0.0 0.00 57.3 14.1 52.49 2.5
2018 05 01 4:00 267.2 0.0 0.00 55.4 13.0 56.89 2.6
2018 05 01 5:00 267.5 0.0 0.00 54.3 12.4 58.84 3.3
2018 05 01 6:00 267.3 0.0 0.00 55.0 12.8 58.34 2.9
2018 05 01 7:00 266.3 0.0 0.00 58.3 14.6 55.98 3.4
2018 05 01 8:00 265.4 0.0 0.00 65.9 18.8 45.39 8.6
2018 05 01 9:00 265.1 0.0 0.00 70.7 21.5 42.88 9.5
2018 05 01 10:00 264.9 0.0 0.00 74.8 23.8 41.85 11.5
2018 05 01 11:00 264.6 0.0 0.00 78.0 25.5 37.68 13.0
2018 05 01 12:00 264.6 0.0 0.00 80.1 26.7 34.51 11.7
2018 05 01 13:00 264.6 0.0 0.00 81.4 27.5 32.04 12.3
2018 05 01 14:00 264.6 0.0 0.00 82.5 28.0 30.94 11.2
2018 05 01 15:00 264.6 0.0 0.00 83.5 28.6 29.97 12.3
2018 05 01 16:00 264.6 0.0 0.00 82.2 27.9 30.62 10.6
2018 05 01 17:00 264.6 0.0 0.00 81.7 27.6 31.36 9.6
2018 05 01 18:00 264.6 0.0 0.00 80.7 27.1 34.26 8.3
2018 05 01 19:00 264.9 0.0 0.00 79.6 26.4 34.4 7.3
2018 05 01 20:00 265.5 0.0 0.00 76.4 24.7 38.11 3.7
2018 05 01 21:00 265.9 0.0 0.00 74.4 23.5 40.69 6.3
2018 05 01 22:00 266.1 0.0 0.00 73.7 23.1 43.84 7.6
2018 05 01 23:00 266.1 0.0 0.00 72.2 22.4 45.83 7.0
2018 05 01 24:00 266.3 0.0 0.00 70.6 21.5 48.24 5.5
2018 05 02 1:00 266.5 0.0 0.00 69.6 20.9 47.8 5.9
2018 05 02 2:00 266.1 0.0 0.00 69.8 21.0 42.36 5.8
2018 05 02 3:00 266.1 0.0 0.00 69.7 20.9 40.14 6.7
2018 05 02 4:00 266.1 0.0 0.00 69.0 20.6 42.66 5.1
2018 05 02 5:00 266.1 0.0 0.00 67.4 19.7 47.57 3.7
2018 05 02 6:00 266.8 0.0 0.00 66.7 19.3 51.55 4.0
2018 05 02 7:00 266.7 0.0 0.00 68.2 20.1 54.64 5.1
2018 05 02 8:00 266.1 0.0 0.00 72.1 22.3 54.35 8.7
2018 05 02 9:00 266.1 0.0 0.00 74.3 23.5 54.98 10.0
2018 05 02 10:00 265.9 0.0 0.00 77.3 25.2 54.94 11.6
2018 05 02 11:00 265.8 0.0 0.00 78.7 25.9 52.84 10.9
2018 05 02 12:00 265.7 0.0 0.00 80.6 27.0 51.44 9.5
2018 05 02 13:00 266.0 0.0 0.00 81.0 27.2 51.01 9.1
2018 05 02 14:00 266.0 0.0 0.00 81.3 27.4 49.9 11.1
2018 05 02 15:00 266.0 0.0 0.00 81.3 27.4 49.87 10.1
2018 05 02 16:00 266.0 0.0 0.00 82.7 28.2 46.47 9.6
2018 05 02 17:00 266.0 0.0 0.00 82.6 28.1 45.62 7.8
2018 05 02 18:00 266.0 0.0 0.00 82.2 27.9 45.92 6.4
2018 05 02 19:00 266.7 0.0 0.00 81.2 27.4 47.45 7.0
2018 05 02 20:00 266.8 0.0 0.00 79.3 26.3 51.57 8.5
2018 05 02 21:00 267.4 0.0 0.00 77.5 25.3 56.66 8.3
2018 05 02 22:00 267.5 0.0 0.00 75.9 24.4 61.17 7.3
2018 05 02 23:00 268.1 0.0 0.00 75.3 24.1 64.06 8.2
2018 05 02 24:00 268.1 0.0 0.00 75.3 24.0 65.74 8.6
2018 05 03 1:00 268.6 0.0 0.00 74.9 23.8 67.52 7.7
2018 05 03 2:00 Wet 315.3 0.1 2.03 70.5 21.4 76.72 9.6
2018 05 03 3:00 Wet 502.3 0.6 15.49 63.4 17.4 94.7 5.5
2018 05 03 4:00 Wet 454.0 0.1 2.03 64.1 17.9 95.8 2.6
2018 05 03 5:00 Wet 319.2 0.0 0.00 64.0 17.8 97 5.2
2018 05 03 6:00 278.4 0.0 0.00 64.6 18.1 93.3 2.7
2018 05 03 7:00 272.7 0.0 0.00 65.0 18.3 90.8 0.3
2018 05 03 8:00 271.5 0.0 0.00 65.7 18.7 89.9 0.4
2018 05 03 9:00 269.6 0.0 0.00 68.7 20.4 80.3 4.0
2018 05 03 10:00 Wet 305.4 0.0 0.51 70.0 21.1 76.94 5.5
2018 05 03 11:00 Wet 465.2 0.3 7.62 66.5 19.2 90.8 9.3
2018 05 03 12:00 Wet 297.0 0.0 0.00 66.4 19.1 88 9.3
2018 05 03 13:00 Wet 319.0 0.0 0.25 67.2 19.5 87.2 7.9
2018 05 03 14:00 271.3 0.0 0.00 68.8 20.4 81.6 9.5
2018 05 03 15:00 271.1 0.0 0.00 68.8 20.4 85 11.0
2018 05 03 16:00 271.0 0.0 0.00 69.3 20.8 82.3 8.4
2018 05 03 17:00 270.8 0.0 0.00 69.3 20.7 79.23 10.6
2018 05 03 18:00 270.8 0.0 0.00 68.5 20.3 77.49 10.2
2018 05 03 19:00 270.8 0.0 0.00 68.4 20.2 76.14 6.9
2018 05 03 20:00 271.3 0.0 0.00 67.2 19.6 78.88 6.0
2018 05 03 21:00 271.5 0.0 0.00 66.1 18.9 80.9 7.3
2018 05 03 22:00 271.5 0.0 0.00 65.8 18.8 79.31 9.0
2018 05 03 23:00 271.1 0.0 0.00 65.7 18.7 76.87 10.6
2018 05 03 24:00 271.4 0.0 0.00 65.9 18.8 77.79 10.4
2018 05 04 1:00 271.5 0.0 0.00 65.6 18.7 79.59 8.3
2018 05 04 2:00 271.5 0.0 0.00 65.5 18.6 79.98 8.2
2018 05 04 3:00 271.5 0.0 0.00 65.2 18.4 80.7 8.1
2018 05 04 4:00 271.5 0.0 0.00 65.1 18.4 80.8 8.5
2018 05 04 5:00 271.6 0.0 0.00 64.5 18.1 82.5 7.5
2018 05 04 6:00 271.9 0.0 0.00 64.0 17.8 84.5 6.1
2018 05 04 7:00 270.9 0.0 0.00 66.1 18.9 80.9 8.1
2018 05 04 8:00 270.2 0.0 0.00 68.2 20.1 76.2 10.5
2018 05 04 9:00 269.5 0.0 0.00 68.7 20.4 68.93 12.4
2018 05 04 10:00 269.2 0.0 0.00 67.9 20.0 68.4 10.0
2018 05 04 11:00 268.8 0.0 0.00 68.3 20.2 66.91 8.6
2018 05 04 12:00 268.3 0.0 0.00 69.5 20.8 60.12 8.5
2018 05 04 13:00 268.1 0.0 0.00 69.9 21.1 57.84 8.4
2018 05 04 14:00 267.7 0.0 0.00 71.1 21.7 52.89 7.0
2018 05 04 15:00 267.3 0.0 0.00 72.2 22.3 46.46 5.2
2018 05 04 16:00 Wet 293.3 0.0 0.00 71.6 22.0 47.32 5.2
2018 05 04 17:00 268.1 0.0 0.00 70.8 21.6 48.28 5.5
2018 05 04 18:00 267.4 0.0 0.00 72.3 22.4 43.74 4.5
2018 05 04 19:00 267.7 0.0 0.00 70.4 21.3 45.18 2.2
2018 05 04 20:00 268.6 0.0 0.00 66.2 19.0 51.79 1.0
2018 05 04 21:00 263.3 0.0 0.00 61.5 16.4 68.89 0.5
2018 05 04 22:00 266.0 0.0 0.00 58.3 14.6 79.46 0.6
2018 05 04 23:00 Wet 340.4 0.0 0.00 55.1 12.8 89.7 0.0
2018 05 04 24:00 Wet 366.3 0.0 0.00 54.4 12.5 87.4 0.7
2018 05 05 1:00 Wet 398.5 0.0 0.00 52.4 11.3 94.2 0.1
2018 05 05 2:00 Wet 432.5 0.0 0.00 51.8 11.0 93.5 0.8
2018 05 05 3:00 Wet 445.0 0.0 0.00 50.7 10.4 94.9 0.3
2018 05 05 4:00 Wet 441.9 0.0 0.00 49.9 10.0 96.3 0.1
2018 05 05 5:00 Wet 386.4 0.0 0.00 49.2 9.6 96.6 1.7
2018 05 05 6:00 Wet 355.0 0.0 0.00 50.1 10.0 94.4 1.8
2018 05 05 7:00 Wet 284.4 0.0 0.00 54.4 12.4 84.9 1.4
2018 05 05 8:00 269.0 0.0 0.00 62.0 16.7 70.89 3.4
2018 05 05 9:00 267.7 0.0 0.00 66.1 19.0 57.29 4.5
2018 05 05 10:00 266.1 0.0 0.00 70.4 21.3 48.05 2.6
2018 05 05 11:00 265.4 0.0 0.00 74.4 23.5 40.59 3.0
2018 05 05 12:00 264.9 0.0 0.00 76.2 24.6 30.94 4.4
2018 05 05 13:00 264.6 0.0 0.00 76.9 24.9 29.56 3.7
2018 05 05 14:00 264.6 0.0 0.00 76.9 24.9 28.37 3.3
2018 05 05 15:00 264.6 0.0 0.00 78.5 25.9 24.04 4.3
2018 05 05 16:00 264.7 0.0 0.00 79.0 26.1 24.67 6.4
2018 05 05 17:00 264.6 0.0 0.00 79.1 26.1 23.25 4.4
2018 05 05 18:00 264.6 0.0 0.00 77.9 25.5 24.2 4.1
2018 05 05 19:00 264.8 0.0 0.00 75.7 24.3 28.13 0.6
2018 05 05 20:00 266.5 0.0 0.00 69.5 20.9 41.7 0.0
2018 05 05 21:00 267.9 0.0 0.00 65.1 18.4 54.38 0.4
2018 05 05 22:00 269.0 0.0 0.00 62.9 17.1 56.77 0.0
2018 05 05 23:00 269.6 0.0 0.00 60.3 15.7 62.52 0.1
2018 05 05 24:00 271.9 0.0 0.00 57.0 13.9 77.22 0.0
2018 05 06 1:00 278.4 0.0 0.00 55.3 12.9 83.3 0.2
2018 05 06 2:00 Wet 306.9 0.0 0.00 53.8 12.1 87.7 0.2
2018 05 06 3:00 Wet 337.5 0.0 0.00 52.7 11.5 90 0.4
2018 05 06 4:00 Wet 300.4 0.0 0.00 54.4 12.4 87.3 0.9
2018 05 06 5:00 272.0 0.0 0.00 55.7 13.2 81.6 1.1
2018 05 06 6:00 271.6 0.0 0.00 56.5 13.6 79.23 0.7
2018 05 06 7:00 276.5 0.0 0.00 60.1 15.6 68.01 0.8
2018 05 06 8:00 268.5 0.0 0.00 63.8 17.7 63.38 0.7
2018 05 06 9:00 267.3 0.0 0.00 68.6 20.3 49.1 4.2
2018 05 06 10:00 266.6 0.0 0.00 71.4 21.9 46.11 5.9
2018 05 06 11:00 265.8 0.0 0.00 75.1 24.0 43.26 7.3
2018 05 06 12:00 265.5 0.0 0.00 77.2 25.1 38.86 7.8
2018 05 06 13:00 265.0 0.0 0.00 79.2 26.2 33 7.2
2018 05 06 14:00 264.8 0.0 0.00 80.4 26.9 32 6.7
2018 05 06 15:00 265.2 0.0 0.00 81.2 27.3 30.44 4.9
2018 05 06 16:00 264.8 0.0 0.00 82.7 28.1 27.41 5.9
2018 05 06 17:00 265.2 0.0 0.00 79.1 26.2 32.52 5.8
2018 05 06 18:00 265.5 0.0 0.00 76.3 24.6 35.56 3.7
2018 05 06 19:00 Wet 422.9 0.1 2.29 66.6 19.2 64.96 5.1
2018 05 06 20:00 282.6 0.0 0.25 62.6 17.0 79.27 3.5
2018 05 06 21:00 271.0 0.0 0.00 62.9 17.1 75.39 3.2
2018 05 06 22:00 272.7 0.0 0.00 60.7 15.9 82.7 1.7
2018 05 06 23:00 Wet 293.8 0.0 0.00 58.6 14.8 89.2 0.3
2018 05 06 24:00 Wet 327.5 0.0 0.00 58.0 14.5 90.7 1.0
2018 05 07 1:00 Wet 343.1 0.0 0.00 57.2 14.0 91.8 2.2
2018 05 07 2:00 Wet 302.4 0.0 0.00 58.5 14.7 76.49 3.3
2018 05 07 3:00 271.1 0.0 0.00 58.3 14.6 68.83 0.7
2018 05 07 4:00 273.8 0.0 0.00 55.6 13.1 77.72 0.4
2018 05 07 5:00 274.6 0.0 0.00 53.9 12.2 79.25 1.4
2018 05 07 6:00 271.6 0.0 0.00 53.8 12.1 80.4 1.0
2018 05 07 7:00 269.0 0.0 0.00 56.4 13.5 70.6 2.0
2018 05 07 8:00 267.3 0.0 0.00 60.0 15.5 60.82 2.8
2018 05 07 9:00 266.7 0.0 0.00 62.9 17.1 56.63 4.0
2018 05 07 10:00 266.2 0.0 0.00 65.7 18.7 53.09 5.0
2018 05 07 11:00 265.8 0.0 0.00 69.1 20.6 44.83 5.3
2018 05 07 12:00 265.2 0.0 0.00 71.7 22.0 39.46 5.2
2018 05 07 13:00 265.2 0.0 0.00 73.7 23.2 35.96 4.8
2018 05 07 14:00 264.8 0.0 0.00 75.2 24.0 31.28 4.6
2018 05 07 15:00 265.2 0.0 0.00 76.2 24.6 28.88 3.7
2018 05 07 16:00 265.2 0.0 0.00 76.4 24.6 29.06 3.9
2018 05 07 17:00 264.7 0.0 0.00 76.2 24.5 25.71 4.6
2018 05 07 18:00 264.7 0.0 0.00 75.5 24.2 23.68 3.4
2018 05 07 19:00 264.8 0.0 0.00 73.5 23.0 26.61 3.1
2018 05 07 20:00 265.7 0.0 0.00 69.5 20.8 34.13 0.9
2018 05 07 21:00 267.3 0.0 0.00 63.2 17.3 50.72 0.3
2018 05 07 22:00 268.6 0.0 0.00 59.8 15.5 57.98 0.6
2018 05 07 23:00 270.6 0.0 0.00 56.1 13.4 71.75 1.4
2018 05 07 24:00 281.3 0.0 0.00 52.5 11.4 84.5 0.6
2018 05 08 1:00 281.9 0.0 0.00 52.3 11.3 82.2 0.5
2018 05 08 2:00 Wet 308.1 0.0 0.00 50.5 10.3 86.3 0.2
2018 05 08 3:00 Wet 362.0 0.0 0.00 48.8 9.3 92.5 0.3
2018 05 08 4:00 Wet 426.7 0.0 0.00 47.9 8.8 94.3 0.2
2018 05 08 5:00 Wet 498.3 0.0 0.00 47.1 8.4 95 0.0
2018 05 08 6:00 Wet 471.0 0.0 0.00 46.8 8.2 96.1 0.0
2018 05 08 7:00 Wet 304.6 0.0 0.00 53.0 11.7 87.1 2.3
2018 05 08 8:00 267.6 0.0 0.00 61.1 16.2 63.68 4.0
2018 05 08 9:00 266.2 0.0 0.00 68.0 20.0 44.16 6.3
2018 05 08 10:00 265.0 0.0 0.00 71.8 22.1 34.58 7.8
2018 05 08 11:00 264.7 0.0 0.00 73.6 23.1 31.02 8.6
2018 05 08 12:00 264.7 0.0 0.00 75.3 24.1 31.21 7.8
2018 05 08 13:00 264.6 0.0 0.00 76.6 24.8 31.45 8.4
2018 05 08 14:00 264.6 0.0 0.00 77.9 25.5 32.72 7.3
2018 05 08 15:00 264.9 0.0 0.00 78.7 25.9 32.68 7.6
2018 05 08 16:00 265.0 0.0 0.00 78.9 26.0 33.25 8.2
2018 05 08 17:00 265.3 0.0 0.00 77.7 25.4 35.53 7.8
2018 05 08 18:00 265.4 0.0 0.00 76.2 24.5 38.08 6.7
2018 05 08 19:00 265.9 0.0 0.00 74.9 23.8 41.25 5.9
2018 05 08 20:00 266.0 0.0 0.00 73.1 22.9 43.88 6.5
2018 05 08 21:00 266.3 0.0 0.00 72.3 22.4 46.01 5.5
2018 05 08 22:00 266.8 0.0 0.00 71.6 22.0 48.59 5.0
2018 05 08 23:00 266.8 0.0 0.00 70.9 21.6 51.14 4.1
2018 05 08 24:00 267.3 0.0 0.00 69.9 21.0 53.49 3.9
2018 05 09 1:00 266.8 0.0 0.00 70.6 21.4 50.65 5.5
2018 05 09 2:00 269.1 0.0 0.00 70.3 21.3 52.49 5.3
2018 05 09 3:00 267.4 0.0 0.00 69.9 21.0 54.47 6.0
2018 05 09 4:00 Wet 298.2 0.0 0.00 67.8 19.9 63.1 4.3
2018 05 09 5:00 Wet 351.4 0.1 1.27 64.6 18.1 82 2.9
2018 05 09 6:00 274.0 0.0 0.00 63.7 17.6 87.7 3.1
2018 05 09 7:00 277.9 0.0 0.00 64.5 18.0 86.4 4.1
2018 05 09 8:00 Wet 339.9 0.0 0.51 64.9 18.3 88.8 3.3
2018 05 09 9:00 Wet 333.7 0.0 0.51 66.7 19.3 83.2 3.5
2018 05 09 10:00 271.6 0.0 0.00 71.3 21.8 72.04 5.5
2018 05 09 11:00 268.0 0.0 0.00 75.8 24.4 58.53 10.8
2018 05 09 12:00 266.9 0.0 0.00 79.0 26.1 53.31 9.2
2018 05 09 13:00 266.7 0.0 0.00 80.7 27.0 50.6 10.0
2018 05 09 14:00 266.4 0.0 0.00 83.1 28.4 42.46 9.5
2018 05 09 15:00 266.0 0.0 0.00 84.1 28.9 38.59 10.4
2018 05 09 16:00 266.0 0.0 0.00 84.2 29.0 39.67 9.9
2018 05 09 17:00 266.0 0.0 0.00 83.7 28.7 38.2 9.1
2018 05 09 18:00 265.4 0.0 0.00 83.4 28.5 33.95 7.9
2018 05 09 19:00 265.9 0.0 0.00 81.0 27.2 39.21 7.8
2018 05 09 20:00 266.2 0.0 0.00 77.0 25.0 42.14 6.9
2018 05 09 21:00 267.0 0.0 0.00 73.0 22.8 49.87 3.9
2018 05 09 22:00 267.7 0.0 0.00 69.8 21.0 55.71 2.2
2018 05 09 23:00 268.4 0.0 0.00 68.1 20.1 58.66 1.3
2018 05 09 24:00 269.7 0.0 0.00 63.9 17.7 71.33 0.1
2018 05 10 1:00 270.9 0.0 0.00 61.9 16.6 76.15 0.0
2018 05 10 2:00 272.8 0.0 0.00 60.5 15.9 79.3 0.1
2018 05 10 3:00 Wet 297.7 0.0 0.00 57.7 14.3 89 0.5
2018 05 10 4:00 Wet 322.1 0.0 0.00 56.7 13.7 92.1 1.8
2018 05 10 5:00 Wet 331.8 0.0 0.00 56.1 13.4 93.2 1.3
2018 05 10 6:00 Wet 341.5 0.0 0.00 55.8 13.2 95.4 0.5
2018 05 10 7:00 271.6 0.0 0.00 60.4 15.8 86.1 0.7
2018 05 10 8:00 268.1 0.0 0.00 65.6 18.7 73.47 1.1
2018 05 10 9:00 266.9 0.0 0.00 70.3 21.3 64.1 2.2
2018 05 10 10:00 266.9 0.0 0.00 74.2 23.4 59.52 7.0
2018 05 10 11:00 266.5 0.0 0.00 77.0 25.0 55.01 6.3
2018 05 10 12:00 265.7 0.0 0.00 80.0 26.7 48.93 4.4
2018 05 10 13:00 265.3 0.0 0.00 82.2 27.9 43.08 4.0
2018 05 10 14:00 265.1 0.0 0.00 84.2 29.0 39.66 3.7
2018 05 10 15:00 265.4 0.0 0.00 85.4 29.7 35.91 4.6
2018 05 10 16:00 265.4 0.0 0.00 84.7 29.3 38.59 5.2
2018 05 10 17:00 266.0 0.0 0.00 83.5 28.6 43.54 7.3
2018 05 10 18:00 266.0 0.0 0.00 83.3 28.5 42.57 5.3
2018 05 10 19:00 266.2 0.0 0.00 81.8 27.7 43.06 3.4
2018 05 10 20:00 267.1 0.0 0.00 78.2 25.6 47.53 2.5
2018 05 10 21:00 267.4 0.0 0.00 75.9 24.4 52.01 5.6
2018 05 10 22:00 268.2 0.0 0.00 73.1 22.8 58.61 1.2
2018 05 10 23:00 268.8 0.0 0.00 70.6 21.4 63.41 0.5
2018 05 10 24:00 269.5 0.0 0.00 68.7 20.4 68.53 0.7
2018 05 11 1:00 273.2 0.0 0.00 63.9 17.7 81.2 0.1
2018 05 11 2:00 Wet 292.6 0.0 0.00 61.6 16.5 88.6 0.1
2018 05 11 3:00 Wet 304.0 0.0 0.00 62.0 16.6 87.1 0.1
2018 05 11 4:00 Wet 326.4 0.0 0.00 61.5 16.4 86.9 1.1
2018 05 11 5:00 Wet 289.2 0.0 0.00 63.2 17.3 79.68 2.5
2018 05 11 6:00 271.3 0.0 0.00 63.6 17.6 77.17 2.6
2018 05 11 7:00 270.0 0.0 0.00 64.9 18.3 75.44 3.3
2018 05 11 8:00 268.7 0.0 0.00 68.3 20.1 69.99 4.7
2018 05 11 9:00 267.7 0.0 0.00 73.0 22.8 61.32 5.6
2018 05 11 10:00 267.9 0.0 0.00 74.4 23.5 59.34 5.4
2018 05 11 11:00 267.2 0.0 0.00 76.7 24.9 54.73 9.0
2018 05 11 12:00 267.3 0.0 0.00 77.5 25.3 51.68 13.4
2018 05 11 13:00 267.2 0.0 0.00 78.1 25.6 49.98 13.3
2018 05 11 14:00 266.5 0.0 0.00 80.6 27.0 43.88 10.3
2018 05 11 15:00 266.0 0.0 0.00 82.9 28.3 40.07 9.7
2018 05 11 16:00 266.0 0.0 0.00 83.3 28.5 41.19 8.3
2018 05 11 17:00 265.6 0.0 0.00 84.8 29.4 34.19 11.2
2018 05 11 18:00 265.3 0.0 0.00 84.6 29.2 31.99 9.3
2018 05 11 19:00 265.8 0.0 0.00 82.0 27.8 34.91 4.7
2018 05 11 20:00 266.1 0.0 0.00 79.2 26.2 38.57 4.2
2018 05 11 21:00 266.7 0.0 0.00 76.5 24.7 42.78 0.9
2018 05 11 22:00 267.3 0.0 0.00 72.7 22.6 52.12 1.7
2018 05 11 23:00 267.5 0.0 0.00 72.6 22.5 54.06 3.3
2018 05 11 24:00 268.1 0.0 0.00 71.5 21.9 57.84 2.8
2018 05 12 1:00 268.7 0.0 0.00 69.9 21.1 62.84 3.4
2018 05 12 2:00 268.3 0.0 0.00 70.9 21.6 61.49 6.4
2018 05 12 3:00 268.1 0.0 0.00 72.1 22.3 59.04 7.5
2018 05 12 4:00 268.1 0.0 0.00 71.8 22.1 60.77 4.7
2018 05 12 5:00 268.7 0.0 0.00 70.0 21.1 65.44 2.8
2018 05 12 6:00 268.8 0.0 0.00 69.4 20.8 68.06 2.8
2018 05 12 7:00 268.8 0.0 0.00 69.5 20.9 70.21 3.3
2018 05 12 8:00 268.0 0.0 0.00 71.7 22.1 67.99 6.0
2018 05 12 9:00 267.4 0.0 0.00 74.9 23.8 63.28 7.5
2018 05 12 10:00 267.8 0.0 0.00 75.3 24.1 63.59 7.4
2018 05 12 11:00 267.8 0.0 0.00 76.3 24.6 62.61 4.2
2018 05 12 12:00 267.3 0.0 0.00 78.3 25.7 59.18 4.8
2018 05 12 13:00 267.4 0.0 0.00 79.1 26.2 57.5 4.8
2018 05 12 14:00 267.1 0.0 0.00 80.7 27.0 55.05 5.9
2018 05 12 15:00 266.6 0.0 0.00 84.5 29.2 49.03 4.9
2018 05 12 16:00 266.7 0.0 0.00 86.2 30.1 44.24 8.3
2018 05 12 17:00 266.5 0.0 0.00 86.6 30.4 41.9 9.4
2018 05 12 18:00 266.6 0.0 0.00 85.6 29.8 43.35 7.4
2018 05 12 19:00 266.7 0.0 0.00 83.7 28.7 44.47 6.0
2018 05 12 20:00 267.2 0.0 0.00 80.4 26.9 49.63 4.4
2018 05 12 21:00 267.5 0.0 0.00 77.7 25.4 54.4 3.9
2018 05 12 22:00 267.9 0.0 0.00 75.8 24.3 57.43 4.9
2018 05 12 23:00 268.1 0.0 0.00 74.4 23.5 59.72 5.9
2018 05 12 24:00 268.4 0.0 0.00 72.7 22.6 63.51 5.0
2018 05 13 1:00 268.8 0.0 0.00 71.9 22.2 65.22 5.4
2018 05 13 2:00 268.8 0.0 0.00 71.4 21.9 67.05 4.8
2018 05 13 3:00 269.2 0.0 0.00 69.9 21.1 71.01 3.8
2018 05 13 4:00 269.8 0.0 0.00 68.8 20.4 74.25 1.9
2018 05 13 5:00 270.2 0.0 0.00 68.5 20.3 75.79 3.3
2018 05 13 6:00 269.8 0.0 0.00 68.9 20.5 76.1 2.3
2018 05 13 7:00 268.9 0.0 0.00 70.7 21.5 74.69 4.6
2018 05 13 8:00 267.9 0.0 0.00 74.8 23.8 68.79 6.9
2018 05 13 9:00 267.4 0.0 0.00 78.0 25.6 64.24 7.9
2018 05 13 10:00 266.9 0.0 0.00 80.4 26.9 61.27 8.0
2018 05 13 11:00 266.7 0.0 0.00 81.7 27.6 58.38 8.7
2018 05 13 12:00 266.4 0.0 0.00 83.2 28.5 55.47 7.3
2018 05 13 13:00 266.5 0.0 0.00 83.9 28.8 53.22 6.8
2018 05 13 14:00 266.5 0.0 0.00 84.6 29.2 50.26 6.4
2018 05 13 15:00 266.6 0.0 0.00 85.9 30.0 48.78 5.0
2018 05 13 16:00 266.6 0.0 0.00 86.1 30.0 47.38 3.8
2018 05 13 17:00 266.6 0.0 0.00 86.3 30.2 46.85 3.8
2018 05 13 18:00 266.7 0.0 0.00 85.2 29.6 48.46 3.9
2018 05 13 19:00 267.2 0.0 0.00 83.2 28.5 52.08 3.4
2018 05 13 20:00 267.9 0.0 0.00 80.4 26.9 56.03 3.1
2018 05 13 21:00 268.4 0.0 0.00 77.9 25.5 60.91 1.8
2018 05 13 22:00 269.6 0.0 0.00 74.9 23.9 67.39 0.0
2018 05 13 23:00 271.9 0.0 0.00 70.7 21.5 78.93 0.1
2018 05 13 24:00 271.7 0.0 0.00 70.7 21.5 77.76 1.9
2018 05 14 1:00 270.3 0.0 0.00 72.7 22.6 71.44 5.3
2018 05 14 2:00 270.2 0.0 0.00 72.7 22.6 70.3 5.3
2018 05 14 3:00 270.2 0.0 0.00 71.5 22.0 72.12 4.9
2018 05 14 4:00 270.2 0.0 0.00 70.5 21.4 74.31 3.2
2018 05 14 5:00 270.2 0.0 0.00 69.9 21.0 74.81 5.1
2018 05 14 6:00 270.2 0.0 0.00 69.3 20.7 76.66 3.4
2018 05 14 7:00 269.2 0.0 0.00 70.8 21.6 75.24 3.7
2018 05 14 8:00 267.7 0.0 0.00 75.1 23.9 67.83 3.3
2018 05 14 9:00 267.3 0.0 0.00 77.0 25.0 64.27 4.4
2018 05 14 10:00 266.7 0.0 0.00 79.5 26.4 61.88 6.4
2018 05 14 11:00 266.7 0.0 0.00 82.1 27.8 56.96 8.2
2018 05 14 12:00 266.5 0.0 0.00 83.2 28.4 53.85 7.7
2018 05 14 13:00 266.2 0.0 0.00 84.4 29.1 49.32 6.4
2018 05 14 14:00 266.4 0.0 0.00 84.8 29.3 49.43 6.9
2018 05 14 15:00 266.7 0.0 0.00 85.8 29.9 47.31 7.8
2018 05 14 16:00 266.7 0.0 0.00 85.0 29.4 48.25 6.6
2018 05 14 17:00 Wet 382.8 0.3 6.60 69.9 21.0 71.5 14.1
2018 05 14 18:00 Wet 471.3 0.1 2.54 64.8 18.2 87.7 6.4
2018 05 14 19:00 Wet 314.2 0.0 0.00 64.1 17.8 93 2.7
2018 05 14 20:00 277.9 0.0 0.00 64.1 17.8 92.2 4.1
2018 05 14 21:00 271.9 0.0 0.00 64.8 18.2 87.4 7.1
2018 05 14 22:00 271.5 0.0 0.00 66.0 18.9 82.5 3.8
2018 05 14 23:00 272.0 0.0 0.00 65.8 18.8 85.4 0.9
2018 05 14 24:00 272.6 0.0 0.00 65.5 18.6 88.1 1.5
2018 05 15 1:00 278.9 0.0 0.00 64.3 17.9 93.3 1.6
2018 05 15 2:00 275.2 0.0 0.00 64.6 18.1 91.9 1.8
2018 05 15 3:00 Wet 290.8 0.0 0.00 63.7 17.6 94.2 1.1
2018 05 15 4:00 Wet 306.8 0.0 0.00 63.4 17.4 94.9 1.8
2018 05 15 5:00 280.5 0.0 0.00 64.1 17.9 87.7 2.8
2018 05 15 6:00 272.3 0.0 0.00 64.1 17.8 83.5 2.7
2018 05 15 7:00 271.1 0.0 0.00 64.9 18.3 82.2 4.6
2018 05 15 8:00 270.8 0.0 0.00 67.0 19.4 79.82 4.1
2018 05 15 9:00 270.2 0.0 0.00 68.8 20.4 76.23 2.4
2018 05 15 10:00 269.7 0.0 0.00 69.6 20.9 74.59 3.1
2018 05 15 11:00 270.0 0.0 0.00 70.6 21.5 74.27 5.7
2018 05 15 12:00 269.5 0.0 0.00 71.6 22.0 74.63 1.2
2018 05 15 13:00 268.8 0.0 0.00 75.2 24.0 66.93 3.6
2018 05 15 14:00 267.8 0.0 0.00 78.5 25.8 59.68 2.6
2018 05 15 15:00 268.0 0.0 0.00 78.2 25.7 59.65 2.5
2018 05 15 16:00 268.0 0.0 0.00 77.6 25.4 60.89 2.4
2018 05 15 17:00 268.2 0.0 0.00 77.7 25.4 60.85 1.3
2018 05 15 18:00 268.9 0.0 0.00 76.2 24.5 66.55 3.1
2018 05 15 19:00 269.6 0.0 0.00 73.9 23.3 74.6 3.6
2018 05 15 20:00 270.0 0.0 0.00 72.3 22.4 73.26 5.0
2018 05 15 21:00 271.0 0.0 0.00 69.5 20.9 78.66 1.5
2018 05 15 22:00 272.9 0.0 0.00 67.4 19.7 84.6 0.9
2018 05 15 23:00 274.1 0.0 0.00 66.1 18.9 88.2 1.9
2018 05 15 24:00 280.4 0.0 0.00 64.7 18.1 91.9 1.8
2018 05 16 1:00 Wet 290.7 0.0 0.00 63.6 17.6 93.2 1.3
2018 05 16 2:00 Wet 340.4 0.0 0.00 62.8 17.1 95.4 0.4
2018 05 16 3:00 Wet 386.3 0.0 0.00 62.5 16.9 94.2 0.3
2018 05 16 4:00 Wet 360.3 0.0 0.00 62.5 16.9 88.5 1.3
2018 05 16 5:00 Wet 319.6 0.0 0.00 61.7 16.5 87.2 1.8
2018 05 16 6:00 280.9 0.0 0.00 61.1 16.2 90.1 0.1
2018 05 16 7:00 272.0 0.0 0.00 62.6 17.0 87 1.2
2018 05 16 8:00 Wet 298.0 0.0 0.00 64.3 18.0 84.3 4.2
2018 05 16 9:00 270.6 0.0 0.00 65.4 18.6 82.1 3.9
2018 05 16 10:00 269.5 0.0 0.00 68.0 20.0 75.9 3.1
2018 05 16 11:00 267.7 0.0 0.00 71.3 21.8 69.24 2.6
2018 05 16 12:00 266.8 0.0 0.00 74.5 23.6 60.07 2.6
2018 05 16 13:00 267.1 0.0 0.00 76.6 24.8 57.34 3.3
2018 05 16 14:00 267.1 0.0 0.00 78.4 25.8 53.89 3.8
2018 05 16 15:00 267.6 0.0 0.00 79.1 26.2 52.65 5.0
2018 05 16 16:00 267.5 0.0 0.00 79.2 26.2 50.92 5.2
2018 05 16 17:00 267.4 0.0 0.00 80.2 26.8 47.2 4.0
2018 05 16 18:00 267.3 0.0 0.00 80.2 26.8 46.95 4.4
2018 05 16 19:00 267.6 0.0 0.00 77.8 25.4 51.37 3.1
2018 05 16 20:00 268.4 0.0 0.00 75.2 24.0 56.6 0.2
2018 05 16 21:00 270.6 0.0 0.00 69.7 21.0 73.64 0.7
2018 05 16 22:00 272.2 0.0 0.00 67.8 19.9 80.8 1.7
2018 05 16 23:00 272.9 0.0 0.00 66.1 19.0 83.5 0.8
2018 05 16 24:00 Wet 288.2 0.0 0.00 63.7 17.6 91 0.6
2018 05 17 1:00 Wet 326.8 0.0 0.00 63.0 17.2 92.6 1.2
2018 05 17 2:00 Wet 343.7 0.0 0.00 62.7 17.0 89.4 0.6
2018 05 17 3:00 Wet 327.9 0.0 0.00 62.4 16.9 84 1.6
2018 05 17 4:00 282.5 0.0 0.00 62.0 16.6 80.8 0.4
2018 05 17 5:00 273.7 0.0 0.00 59.8 15.4 88.9 0.0
2018 05 17 6:00 278.1 0.0 0.00 60.1 15.6 90.3 0.9
2018 05 17 7:00 271.6 0.0 0.00 62.6 17.0 88.3 1.3
2018 05 17 8:00 270.5 0.0 0.00 67.5 19.7 79.91 3.3
2018 05 17 9:00 269.4 0.0 0.00 71.4 21.9 73.5 5.2
2018 05 17 10:00 268.9 0.0 0.00 73.7 23.2 69.58 5.4
2018 05 17 11:00 268.2 0.0 0.00 76.6 24.8 63.03 6.1
2018 05 17 12:00 267.6 0.0 0.00 78.3 25.7 56.27 5.9
2018 05 17 13:00 Wet 306.7 0.0 0.25 78.0 25.5 57.32 7.1
2018 05 17 14:00 273.9 0.0 0.00 78.3 25.7 59.13 4.7
2018 05 17 15:00 267.4 0.0 0.00 79.6 26.4 47.11 5.8
2018 05 17 16:00 266.7 0.0 0.00 79.6 26.4 42.77 5.4
2018 05 17 17:00 266.7 0.0 0.00 78.7 26.0 42.87 3.3
2018 05 17 18:00 267.1 0.0 0.00 78.1 25.6 46.86 2.7
2018 05 17 19:00 267.4 0.0 0.00 77.0 25.0 50.14 2.0
2018 05 17 20:00 269.1 0.0 0.00 72.3 22.4 64.46 0.3
2018 05 17 21:00 270.9 0.0 0.00 68.3 20.1 73.49 1.0
2018 05 17 22:00 274.0 0.0 0.00 65.8 18.8 81.5 0.4
2018 05 17 23:00 Wet 307.4 0.0 0.00 63.1 17.3 90.4 0.0
2018 05 17 24:00 Wet 366.1 0.0 0.00 61.9 16.6 93.2 0.0
2018 05 18 1:00 Wet 406.0 0.0 0.00 60.5 15.8 95.1 0.1
2018 05 18 2:00 Wet 370.1 0.0 0.00 61.8 16.6 87.7 0.1
2018 05 18 3:00 Wet 314.6 0.0 0.00 62.8 17.1 84.5 0.6
2018 05 18 4:00 274.3 0.0 0.00 62.8 17.1 85.7 0.1
2018 05 18 5:00 273.2 0.0 0.00 62.9 17.1 84.9 0.0
2018 05 18 6:00 Wet 400.0 0.0 0.51 63.4 17.4 81.3 1.6
2018 05 18 7:00 Wet 506.8 0.1 1.52 61.8 16.6 92.2 0.8
2018 05 18 8:00 Wet 352.0 0.0 0.00 63.0 17.3 94.5 2.6
2018 05 18 9:00 Wet 394.1 0.0 0.25 64.6 18.1 93.5 2.5
2018 05 18 10:00 Wet 494.1 0.0 0.76 64.8 18.2 92.8 2.2
2018 05 18 11:00 Wet 527.9 0.1 1.52 64.9 18.3 94 2.5
2018 05 18 12:00 Wet 513.1 0.1 1.52 65.4 18.6 94.5 2.6
2018 05 18 13:00 Wet 415.7 0.0 0.25 66.8 19.3 92.1 3.2
2018 05 18 14:00 283.3 0.0 0.00 68.1 20.0 88.3 3.7
2018 05 18 15:00 272.2 0.0 0.00 67.9 20.0 87.4 4.7
2018 05 18 16:00 271.9 0.0 0.00 68.1 20.0 86 4.1
2018 05 18 17:00 271.5 0.0 0.00 68.9 20.5 83.3 5.1
2018 05 18 18:00 272.1 0.0 0.00 68.4 20.2 84.5 4.7
2018 05 18 19:00 272.2 0.0 0.00 67.5 19.7 86.2 2.3
2018 05 18 20:00 272.8 0.0 0.00 66.5 19.2 89.6 2.1
2018 05 18 21:00 Wet 338.0 0.0 0.00 65.9 18.9 91.5 1.5
2018 05 18 22:00 Wet 304.7 0.0 0.00 65.9 18.8 92.1 2.4
2018 05 18 23:00 Wet 310.0 0.0 0.00 64.9 18.3 93.8 0.3
2018 05 18 24:00 Wet 352.3 0.0 0.00 63.4 17.5 96.7 0.3
2018 05 19 1:00 Wet 394.6 0.0 0.00 63.2 17.3 97.6 0.2
2018 05 19 2:00 Wet 392.7 0.0 0.00 63.8 17.7 97.5 2.1
2018 05 19 3:00 Wet 366.9 0.0 0.00 64.0 17.8 96.1 0.4
2018 05 19 4:00 Wet 387.0 0.0 0.00 63.0 17.2 97 1.4
2018 05 19 5:00 Wet 383.7 0.0 0.00 62.4 16.9 97.6 2.5
2018 05 19 6:00 Wet 354.8 0.0 0.00 61.7 16.5 98.2 1.8
2018 05 19 7:00 Wet 311.5 0.0 0.00 61.9 16.6 98.7 2.8
2018 05 19 8:00 279.5 0.0 0.00 63.0 17.3 98.8 3.0
2018 05 19 9:00 271.8 0.0 0.00 64.5 18.0 96.4 2.1
2018 05 19 10:00 271.1 0.0 0.00 67.0 19.4 88.4 3.9
2018 05 19 11:00 269.6 0.0 0.00 71.2 21.8 78.78 4.6
2018 05 19 12:00 269.6 0.0 0.00 73.3 22.9 74.29 4.0
2018 05 19 13:00 269.5 0.0 0.00 74.5 23.6 72.76 3.5
2018 05 19 14:00 Wet 338.2 0.1 3.30 70.6 21.4 75.68 7.0
2018 05 19 15:00 Wet 297.8 0.0 0.00 65.0 18.4 87.6 6.1
2018 05 19 16:00 271.5 0.0 0.00 68.3 20.2 81.9 4.5
2018 05 19 17:00 270.9 0.0 0.00 70.5 21.4 77.66 1.4
2018 05 19 18:00 271.1 0.0 0.00 70.5 21.4 78.98 2.8
2018 05 19 19:00 271.6 0.0 0.00 70.2 21.2 80.6 0.7
2018 05 19 20:00 274.9 0.0 0.00 69.1 20.6 82.4 2.8
2018 05 19 21:00 271.5 0.0 0.00 69.0 20.6 74.88 4.9
2018 05 19 22:00 272.1 0.0 0.00 67.9 20.0 75.84 2.9
2018 05 19 23:00 271.5 0.0 0.00 66.3 19.1 76.8 4.7
2018 05 19 24:00 271.6 0.0 0.00 65.5 18.6 77.93 4.2
2018 05 20 1:00 272.6 0.0 0.00 64.0 17.8 80.8 1.5
2018 05 20 2:00 276.1 0.0 0.00 61.8 16.6 86.1 1.4
2018 05 20 3:00 Wet 294.3 0.0 0.00 59.8 15.5 92.1 0.0
2018 05 20 4:00 Wet 345.1 0.0 1.02 59.6 15.3 94.9 0.6
2018 05 20 5:00 Wet 387.7 0.1 1.78 61.0 16.1 93.4 4.1
2018 05 20 6:00 Wet 369.8 0.0 0.25 61.3 16.3 94.9 3.1
2018 05 20 7:00 Wet 297.9 0.0 0.00 61.5 16.4 96 3.5
2018 05 20 8:00 278.7 0.0 0.00 62.4 16.9 95.4 2.3
2018 05 20 9:00 271.4 0.0 0.00 65.4 18.6 90.9 3.9
2018 05 20 10:00 Wet 294.7 0.0 0.25 66.8 19.4 88 6.8
2018 05 20 11:00 Wet 476.6 0.1 1.78 64.8 18.2 92.2 6.6
2018 05 20 12:00 282.4 0.0 0.00 67.0 19.4 89.1 4.5
2018 05 20 13:00 269.8 0.0 0.00 70.9 21.6 78.44 3.4
2018 05 20 14:00 269.8 0.0 0.00 72.8 22.6 73.34 5.0
2018 05 20 15:00 270.0 0.0 0.00 75.0 23.9 67.7 4.9
2018 05 20 16:00 269.4 0.0 0.00 75.5 24.1 66.12 5.8
2018 05 20 17:00 269.4 0.0 0.00 75.9 24.4 66.81 5.0
2018 05 20 18:00 269.8 0.0 0.00 75.6 24.2 68.32 3.8
2018 05 20 19:00 270.5 0.0 0.00 74.7 23.7 71.26 1.7
2018 05 20 20:00 271.7 0.0 0.00 72.3 22.4 78.31 0.5
2018 05 20 21:00 Wet 296.7 0.0 0.00 70.6 21.5 84.6 0.7
2018 05 20 22:00 Wet 440.5 0.0 0.76 69.3 20.7 90.5 2.7
2018 05 20 23:00 Wet 515.6 0.4 9.40 68.1 20.1 94.8 6.0
2018 05 20 24:00 Wet 521.8 0.4 10.67 66.7 19.3 95.9 4.6
2018 05 21 1:00 Wet 509.7 0.1 2.54 65.0 18.4 93.2 2.1
2018 05 21 2:00 Wet 395.8 0.0 0.25 64.6 18.1 96.7 0.5
2018 05 21 3:00 Wet 328.2 0.0 0.00 64.3 17.9 97.1 1.2
2018 05 21 4:00 Wet 350.8 0.0 0.25 64.0 17.8 97.3 3.0
2018 05 21 5:00 Wet 324.0 0.0 0.00 63.5 17.5 95.8 1.7
2018 05 21 6:00 Wet 284.3 0.0 0.00 63.5 17.5 95.3 1.9
2018 05 21 7:00 283.0 0.0 0.00 63.7 17.6 94.9 1.4
2018 05 21 8:00 275.7 0.0 0.00 64.4 18.0 94.7 2.0
2018 05 21 9:00 272.1 0.0 0.00 66.6 19.2 92.2 3.7
2018 05 21 10:00 271.5 0.0 0.00 69.0 20.5 86 5.2
2018 05 21 11:00 270.5 0.0 0.00 71.0 21.7 82.3 5.6
2018 05 21 12:00 270.3 0.0 0.00 72.6 22.5 78.9 5.7
2018 05 21 13:00 269.7 0.0 0.00 74.5 23.6 73.97 6.9
2018 05 21 14:00 269.4 0.0 0.00 75.8 24.3 70.71 6.3
2018 05 21 15:00 269.4 0.0 0.00 77.5 25.3 66.33 6.2
2018 05 21 16:00 269.4 0.0 0.00 77.9 25.5 64.12 4.9
2018 05 21 17:00 269.3 0.0 0.00 78.3 25.7 62.59 4.7
2018 05 21 18:00 268.8 0.0 0.00 78.3 25.7 61.73 3.4
2018 05 21 19:00 269.0 0.0 0.00 77.7 25.4 61.66 0.9
2018 05 21 20:00 271.5 0.0 0.00 74.4 23.6 71.05 0.0
2018 05 21 21:00 273.8 0.0 0.00 70.9 21.6 84 0.1
2018 05 21 22:00 274.1 0.0 0.00 70.0 21.1 87.4 0.2
2018 05 21 23:00 273.5 0.0 0.00 68.8 20.4 79.26 0.9
2018 05 21 24:00 Wet 288.4 0.0 0.00 65.9 18.8 88 0.4
2018 05 22 1:00 Wet 312.7 0.0 0.00 64.9 18.3 91.9 1.1
2018 05 22 2:00 Wet 313.3 0.0 0.00 65.0 18.3 90.5 0.6
2018 05 22 3:00 Wet 305.8 0.0 0.00 64.3 18.0 89 1.0
2018 05 22 4:00 Wet 370.2 0.0 0.00 62.4 16.9 92.7 0.0
2018 05 22 5:00 Wet 480.3 0.0 0.00 61.0 16.1 95.4 1.0
2018 05 22 6:00 Wet 499.9 0.0 0.00 60.6 15.9 95.7 0.2
2018 05 22 7:00 Wet 347.2 0.0 0.00 62.4 16.9 94 0.5
2018 05 22 8:00 269.7 0.0 0.00 67.1 19.5 83.6 2.5
2018 05 22 9:00 268.7 0.0 0.00 71.8 22.1 70.31 3.8
2018 05 22 10:00 268.2 0.0 0.00 73.4 23.0 65.9 4.5
2018 05 22 11:00 267.5 0.0 0.00 75.6 24.2 60.7 3.6
2018 05 22 12:00 267.1 0.0 0.00 77.0 25.0 59.82 2.6
2018 05 22 13:00 267.1 0.0 0.00 78.9 26.0 55.88 2.7
2018 05 22 14:00 267.2 0.0 0.00 81.2 27.3 50.26 4.1
2018 05 22 15:00 267.4 0.0 0.00 81.8 27.6 45.98 4.9
2018 05 22 16:00 267.4 0.0 0.00 82.4 28.0 46.82 4.4
2018 05 22 17:00 267.3 0.0 0.00 82.1 27.9 48.3 2.4
2018 05 22 18:00 267.3 0.0 0.00 81.2 27.3 50.6 2.3
2018 05 22 19:00 268.1 0.0 0.00 78.8 26.0 57.58 1.0
2018 05 22 20:00 269.5 0.0 0.00 76.4 24.7 63.51 0.0
2018 05 22 21:00 272.9 0.0 0.00 71.8 22.1 77.59 0.4
2018 05 22 22:00 281.6 0.0 0.00 69.0 20.6 87.2 0.1
2018 05 22 23:00 Wet 318.3 0.0 0.00 67.6 19.8 91.1 0.0
2018 05 22 24:00 Wet 371.5 0.0 0.00 66.1 18.9 95.2 0.0
2018 05 23 1:00 Wet 425.7 0.0 0.00 64.9 18.3 96.8 0.0
2018 05 23 2:00 Wet 467.1 0.0 0.00 64.3 17.9 97 0.0
2018 05 23 3:00 Wet 461.7 0.0 0.00 63.7 17.6 97.1 0.0
2018 05 23 4:00 Wet 431.1 0.0 0.00 62.6 17.0 97.3 0.0
2018 05 23 5:00 Wet 406.1 0.0 0.00 61.8 16.6 97.5 0.0
2018 05 23 6:00 Wet 365.3 0.0 0.00 62.1 16.7 97.8 0.0
2018 05 23 7:00 278.3 0.0 0.00 66.2 19.0 85.7 2.5
2018 05 23 8:00 269.3 0.0 0.00 69.9 21.1 73.71 4.2
2018 05 23 9:00 268.4 0.0 0.00 73.0 22.8 64.44 5.9
2018 05 23 10:00 267.6 0.0 0.00 75.7 24.3 59.59 5.4
2018 05 23 11:00 267.3 0.0 0.00 77.9 25.5 57.1 5.5
2018 05 23 12:00 267.2 0.0 0.00 79.2 26.2 55.14 5.6
2018 05 23 13:00 267.2 0.0 0.00 80.6 27.0 54.11 5.1
2018 05 23 14:00 267.3 0.0 0.00 81.7 27.6 52.21 5.2
2018 05 23 15:00 267.4 0.0 0.00 82.5 28.1 50.1 4.5
2018 05 23 16:00 267.4 0.0 0.00 82.6 28.1 50.22 5.0
2018 05 23 17:00 267.4 0.0 0.00 82.4 28.0 50.81 4.4
2018 05 23 18:00 267.4 0.0 0.00 81.9 27.7 51.44 3.6
2018 05 23 19:00 267.8 0.0 0.00 80.9 27.1 53.45 2.2
2018 05 23 20:00 268.7 0.0 0.00 78.8 26.0 58.07 0.6
2018 05 23 21:00 271.5 0.0 0.00 73.7 23.2 73.65 0.0
2018 05 23 22:00 273.4 0.0 0.00 70.6 21.4 84.1 0.0
2018 05 23 23:00 277.7 0.0 0.00 69.6 20.9 86.5 0.0
2018 05 23 24:00 Wet 292.9 0.0 0.00 68.0 20.0 91.6 0.6
2018 05 24 1:00 Wet 333.0 0.0 0.00 66.4 19.1 95.1 0.1
2018 05 24 2:00 Wet 394.3 0.0 0.00 65.5 18.6 95.8 0.0
2018 05 24 3:00 Wet 465.4 0.0 0.00 64.7 18.2 96.2 0.6
2018 05 24 4:00 Wet 484.3 0.0 0.00 63.6 17.6 96.8 0.5
2018 05 24 5:00 Wet 438.5 0.0 0.00 63.1 17.3 97.7 0.4
2018 05 24 6:00 Wet 342.5 0.0 0.00 64.8 18.2 96.4 1.0
2018 05 24 7:00 271.3 0.0 0.00 68.8 20.4 87.8 1.0
2018 05 24 8:00 268.8 0.0 0.00 72.8 22.6 75.72 2.8
2018 05 24 9:00 267.9 0.0 0.00 76.0 24.5 67.47 2.7
2018 05 24 10:00 266.9 0.0 0.00 79.2 26.2 59.07 3.2
2018 05 24 11:00 266.5 0.0 0.00 80.6 27.0 51.83 4.7
2018 05 24 12:00 266.1 0.0 0.00 82.0 27.8 48.69 4.2
2018 05 24 13:00 266.1 0.0 0.00 83.1 28.4 47.47 4.4
2018 05 24 14:00 266.2 0.0 0.00 83.8 28.8 45.22 4.4
2018 05 24 15:00 266.7 0.0 0.00 84.4 29.1 44.88 4.0
2018 05 24 16:00 266.7 0.0 0.00 84.8 29.3 42.09 3.5
2018 05 24 17:00 266.3 0.0 0.00 84.7 29.3 39.57 4.6
2018 05 24 18:00 266.1 0.0 0.00 84.2 29.0 40.83 3.5
2018 05 24 19:00 266.8 0.0 0.00 82.3 27.9 46.09 2.3
2018 05 24 20:00 268.0 0.0 0.00 78.4 25.8 52.83 0.2
2018 05 24 21:00 269.0 0.0 0.00 75.1 23.9 59.94 0.1
2018 05 24 22:00 269.5 0.0 0.00 73.6 23.1 63.85 0.0
2018 05 24 23:00 270.3 0.0 0.00 71.9 22.2 69.5 0.1
2018 05 24 24:00 271.5 0.0 0.00 69.5 20.8 77.89 0.2
2018 05 25 1:00 272.4 0.0 0.00 68.4 20.2 82.2 0.2
2018 05 25 2:00 272.3 0.0 0.00 68.2 20.1 80.7 0.1
2018 05 25 3:00 273.5 0.0 0.00 66.8 19.4 85.9 0.2
2018 05 25 4:00 283.8 0.0 0.00 65.5 18.6 90.3 0.0
2018 05 25 5:00 Wet 296.0 0.0 0.00 64.8 18.2 92.7 0.7
2018 05 25 6:00 277.7 0.0 0.00 66.5 19.2 89.4 0.1
2018 05 25 7:00 271.9 0.0 0.00 68.0 20.0 87.7 1.3
2018 05 25 8:00 269.4 0.0 0.00 72.1 22.3 81.5 2.9
2018 05 25 9:00 268.1 0.0 0.00 76.7 24.8 74.37 3.6
2018 05 25 10:00 268.1 0.0 0.00 78.5 25.8 69.78 5.2
2018 05 25 11:00 267.8 0.0 0.00 80.1 26.7 62.84 6.2
2018 05 25 12:00 267.9 0.0 0.00 79.3 26.3 64.82 6.0
2018 05 25 13:00 267.4 0.0 0.00 81.3 27.4 61.21 5.4
2018 05 25 14:00 268.7 0.0 0.00 80.6 27.0 63.39 6.0
2018 05 25 15:00 268.0 0.0 0.00 82.0 27.8 57.82 7.6
2018 05 25 16:00 268.0 0.0 0.00 80.6 27.0 57.48 7.3
2018 05 25 17:00 268.1 0.0 0.00 79.1 26.2 58.38 7.6
2018 05 25 18:00 268.1 0.0 0.00 78.9 26.0 58.9 6.1
2018 05 25 19:00 268.3 0.0 0.00 77.7 25.4 61.37 4.3
2018 05 25 20:00 269.6 0.0 0.00 75.2 24.0 67.94 0.7
2018 05 25 21:00 270.6 0.0 0.00 73.5 23.1 72.62 0.6
2018 05 25 22:00 271.1 0.0 0.00 72.6 22.6 75.39 0.3
2018 05 25 23:00 273.2 0.0 0.00 71.0 21.7 83.8 0.4
2018 05 25 24:00 277.9 0.0 0.00 70.2 21.2 89.3 0.3
2018 05 26 1:00 Wet 298.0 0.0 0.00 69.4 20.8 91.9 0.3
2018 05 26 2:00 Wet 345.4 0.0 0.00 68.3 20.1 93.8 0.2
2018 05 26 3:00 Wet 406.7 0.0 0.00 67.3 19.6 94.7 0.2
2018 05 26 4:00 Wet 431.8 0.0 0.00 65.9 18.8 95.5 0.6
2018 05 26 5:00 Wet 434.4 0.0 0.00 64.3 18.0 96.5 0.2
2018 05 26 6:00 Wet 396.2 0.0 0.00 65.2 18.4 96.9 1.4
2018 05 26 7:00 Wet 303.1 0.0 0.00 67.5 19.7 94.9 1.8
2018 05 26 8:00 269.5 0.0 0.00 71.6 22.0 84.8 1.5
2018 05 26 9:00 268.5 0.0 0.00 74.4 23.5 80.4 3.2
2018 05 26 10:00 268.0 0.0 0.00 78.4 25.8 72 4.6
2018 05 26 11:00 267.5 0.0 0.00 81.3 27.4 65.95 5.1
2018 05 26 12:00 267.4 0.0 0.00 83.6 28.6 60.94 5.4
2018 05 26 13:00 267.2 0.0 0.00 85.2 29.5 56.25 5.3
2018 05 26 14:00 267.0 0.0 0.00 86.6 30.4 52.18 3.8
2018 05 26 15:00 267.8 0.0 0.00 87.2 30.7 53.85 4.8
2018 05 26 16:00 267.9 0.0 0.00 87.5 30.9 53.7 5.6
2018 05 26 17:00 267.5 0.0 0.00 87.6 30.9 52.76 5.2
2018 05 26 18:00 267.6 0.0 0.00 86.4 30.2 54.38 4.9
2018 05 26 19:00 268.0 0.0 0.00 84.6 29.2 56.69 2.0
2018 05 26 20:00 269.2 0.0 0.00 82.1 27.8 61.86 0.3
2018 05 26 21:00 270.3 0.0 0.00 78.6 25.9 70.99 2.9
2018 05 26 22:00 270.1 0.0 0.00 79.0 26.1 69.32 0.9
2018 05 26 23:00 270.7 0.0 0.00 77.7 25.4 73.54 0.5
2018 05 26 24:00 271.5 0.0 0.00 76.1 24.5 76.89 0.6
2018 05 27 1:00 271.7 0.0 0.00 75.1 24.0 79.37 0.7
2018 05 27 2:00 272.3 0.0 0.00 73.8 23.2 85.2 2.7
2018 05 27 3:00 274.3 0.0 0.00 73.5 23.0 86.2 0.7
2018 05 27 4:00 276.3 0.0 0.00 72.7 22.6 87.4 0.7
2018 05 27 5:00 277.8 0.0 0.00 71.5 21.9 90.4 0.2
2018 05 27 6:00 277.1 0.0 0.00 71.6 22.0 90.7 0.4
2018 05 27 7:00 269.8 0.0 0.00 74.2 23.4 84.7 0.4
2018 05 27 8:00 268.6 0.0 0.00 77.9 25.5 74.55 4.1
2018 05 27 9:00 267.8 0.0 0.00 81.2 27.3 68.18 4.0
2018 05 27 10:00 266.9 0.0 0.00 84.2 29.0 62.25 3.4
2018 05 27 11:00 266.6 0.0 0.00 86.2 30.1 57.35 4.2
2018 05 27 12:00 266.5 0.0 0.00 87.9 31.1 54.31 4.1
2018 05 27 13:00 266.5 0.0 0.00 89.5 32.0 51.6 4.6
2018 05 27 14:00 266.6 0.0 0.00 89.9 32.2 49.25 3.8
2018 05 27 15:00 266.8 0.0 0.00 91.2 32.9 47.42 3.6
2018 05 27 16:00 266.3 0.0 0.00 91.9 33.3 44.53 3.1
2018 05 27 17:00 266.8 0.0 0.00 90.2 32.3 47.72 2.6
2018 05 27 18:00 268.0 0.0 0.00 85.2 29.6 58.44 3.5
2018 05 27 19:00 268.4 0.0 0.00 82.4 28.0 58.69 2.3
2018 05 27 20:00 268.9 0.0 0.00 80.7 27.1 59.33 0.2
2018 05 27 21:00 269.6 0.0 0.00 77.9 25.5 69.01 1.0
2018 05 27 22:00 271.0 0.0 0.00 75.6 24.2 78.88 0.8
2018 05 27 23:00 273.4 0.0 0.00 74.6 23.6 84.3 0.0
2018 05 27 24:00 274.4 0.0 0.00 73.3 23.0 87.2 0.8
2018 05 28 1:00 275.6 0.0 0.00 73.1 22.9 86.9 0.1
2018 05 28 2:00 Wet 302.5 0.0 0.00 70.8 21.6 93.2 0.5
2018 05 28 3:00 Wet 343.1 0.0 0.00 70.1 21.2 95.1 0.5
2018 05 28 4:00 Wet 373.9 0.0 0.00 69.3 20.8 95.4 0.3
2018 05 28 5:00 Wet 400.3 0.0 0.00 68.7 20.4 96.6 0.0
2018 05 28 6:00 Wet 380.9 0.0 0.00 69.0 20.6 96.6 0.0
2018 05 28 7:00 Wet 297.0 0.0 0.00 72.3 22.4 91.9 0.0
2018 05 28 8:00 268.5 0.0 0.00 77.5 25.3 76.77 1.3
2018 05 28 9:00 268.2 0.0 0.00 80.4 26.9 70.9 4.0
2018 05 28 10:00 267.7 0.0 0.00 83.5 28.6 64.75 3.9
2018 05 28 11:00 267.3 0.0 0.00 86.5 30.3 57.83 4.6
2018 05 28 12:00 266.9 0.0 0.00 88.5 31.4 49.23 7.2
2018 05 28 13:00 266.5 0.0 0.00 89.8 32.1 44.89 6.7
2018 05 28 14:00 266.0 0.0 0.00 90.8 32.7 39.01 7.4
2018 05 28 15:00 266.4 0.0 0.00 90.8 32.7 37.55 6.8
2018 05 28 16:00 266.0 0.0 0.00 91.0 32.8 35.67 6.0
2018 05 28 17:00 265.8 0.0 0.00 90.8 32.7 33.82 5.5
2018 05 28 18:00 265.8 0.0 0.00 89.7 32.0 36.28 4.5
2018 05 28 19:00 266.1 0.0 0.00 88.2 31.2 40.68 3.1
2018 05 28 20:00 267.4 0.0 0.00 83.5 28.6 50.51 1.1
2018 05 28 21:00 268.8 0.0 0.00 79.0 26.1 62 0.6
2018 05 28 22:00 270.0 0.0 0.00 76.9 25.0 67.98 0.4
2018 05 28 23:00 272.6 0.0 0.00 72.9 22.7 80.1 0.0
2018 05 28 24:00 273.1 0.0 0.00 72.4 22.4 82.6 1.1
2018 05 29 1:00 272.0 0.0 0.00 70.3 21.3 87.9 0.0
2018 05 29 2:00 274.1 0.0 0.00 70.4 21.3 87.6 0.9
2018 05 29 3:00 273.9 0.0 0.00 70.8 21.6 86.2 0.5
2018 05 29 4:00 273.2 0.0 0.00 69.1 20.6 91 0.2
2018 05 29 5:00 272.9 0.0 0.00 68.8 20.4 93 0.3
2018 05 29 6:00 274.9 0.0 0.00 69.2 20.7 93.5 0.5
2018 05 29 7:00 272.5 0.0 0.00 71.5 22.0 87.9 1.4
2018 05 29 8:00 270.7 0.0 0.00 74.5 23.6 81 2.7
2018 05 29 9:00 269.4 0.0 0.00 77.9 25.5 73.43 3.7
2018 05 29 10:00 268.3 0.0 0.00 79.9 26.6 62.83 7.3
2018 05 29 11:00 267.8 0.0 0.00 80.9 27.1 59.04 5.1
2018 05 29 12:00 268.5 0.0 0.00 80.0 26.6 59.12 4.4
2018 05 29 13:00 268.6 0.0 0.00 78.7 26.0 60.85 5.2
2018 05 29 14:00 269.0 0.0 0.00 78.5 25.8 59.22 4.8
2018 05 29 15:00 274.7 0.0 0.00 78.9 26.0 61.33 5.1
2018 05 29 16:00 271.4 0.0 0.00 80.0 26.7 60.46 4.9
2018 05 29 17:00 268.7 0.0 0.00 80.2 26.8 60.38 6.0
2018 05 29 18:00 268.7 0.0 0.00 80.0 26.6 61.28 5.4
2018 05 29 19:00 269.1 0.0 0.00 78.5 25.9 63.14 4.0
2018 05 29 20:00 269.9 0.0 0.00 77.3 25.2 67.4 0.6
2018 05 29 21:00 270.8 0.0 0.00 74.9 23.8 75.57 2.2
2018 05 29 22:00 270.9 0.0 0.00 74.6 23.7 77.46 2.9
2018 05 29 23:00 272.3 0.0 0.00 72.8 22.6 83.1 0.7
2018 05 29 24:00 273.0 0.0 0.00 71.7 22.1 86.6 1.0
2018 05 30 1:00 272.7 0.0 0.00 70.4 21.3 90.1 0.8
2018 05 30 2:00 Wet 300.7 0.0 0.00 68.8 20.4 94.5 0.2
2018 05 30 3:00 Wet 328.6 0.0 0.00 68.1 20.0 95.6 1.6
2018 05 30 4:00 Wet 335.9 0.0 0.00 67.8 19.9 95 0.8
2018 05 30 5:00 Wet 342.9 0.0 0.00 67.7 19.8 95 1.9
2018 05 30 6:00 Wet 324.8 0.0 0.00 68.7 20.4 93 0.4
2018 05 30 7:00 Wet 302.1 0.0 0.00 69.3 20.7 94.5 0.6
2018 05 30 8:00 269.4 0.0 0.00 74.0 23.3 82.9 3.6
2018 05 30 9:00 268.8 0.0 0.00 77.8 25.4 71.23 5.9
2018 05 30 10:00 268.0 0.0 0.00 79.7 26.5 66.56 6.1
2018 05 30 11:00 267.4 0.0 0.00 81.8 27.7 60.43 6.6
2018 05 30 12:00 267.4 0.0 0.00 83.6 28.6 56.19 8.7
2018 05 30 13:00 267.1 0.0 0.00 84.9 29.4 52.14 9.8
2018 05 30 14:00 267.1 0.0 0.00 85.0 29.5 48.62 10.8
2018 05 30 15:00 266.8 0.0 0.00 85.7 29.8 42.1 10.0
2018 05 30 16:00 266.7 0.0 0.00 85.6 29.8 43.17 9.4
2018 05 30 17:00 266.7 0.0 0.00 85.2 29.6 44.16 8.3
2018 05 30 18:00 266.7 0.0 0.00 83.9 28.8 46.23 7.6
2018 05 30 19:00 267.4 0.0 0.00 82.0 27.8 53.65 4.5
2018 05 30 20:00 268.2 0.0 0.00 79.6 26.5 56.47 3.4
2018 05 30 21:00 268.8 0.0 0.00 77.1 25.0 61.37 2.1
2018 05 30 22:00 269.4 0.0 0.00 75.0 23.9 65.42 1.5
2018 05 30 23:00 269.5 0.0 0.00 73.9 23.3 67.09 1.6
2018 05 30 24:00 270.0 0.0 0.00 72.8 22.6 70.12 1.3
2018 05 31 1:00 270.2 0.0 0.00 72.4 22.4 71.28 2.4
2018 05 31 2:00 270.2 0.0 0.00 72.2 22.3 71.98 2.7
2018 05 31 3:00 270.2 0.0 0.00 72.4 22.4 71.83 3.8
2018 05 31 4:00 270.3 0.0 0.00 72.7 22.6 74.86 5.5
2018 05 31 5:00 270.9 0.0 0.00 72.0 22.2 79.3 3.9
2018 05 31 6:00 270.4 0.0 0.00 72.2 22.3 81.6 3.6
2018 05 31 7:00 270.3 0.0 0.00 74.5 23.6 81.1 4.9
2018 05 31 8:00 269.8 0.0 0.00 76.6 24.8 73.09 9.5
2018 05 31 9:00 269.5 0.0 0.00 75.8 24.4 68.73 8.9
2018 05 31 10:00 268.8 0.0 0.00 76.0 24.4 66.99 6.2
2018 05 31 11:00 267.4 0.0 0.00 80.5 26.9 55.06 7.9
2018 05 31 12:00 268.0 0.0 0.00 78.9 26.1 56.58 4.7
2018 05 31 13:00 267.6 0.0 0.00 79.7 26.5 57.46 3.8
2018 05 31 14:00 267.4 0.0 0.00 82.1 27.8 52.85 5.4
2018 05 31 15:00 266.8 0.0 0.00 84.2 29.0 46.14 7.7
2018 05 31 16:00 267.1 0.0 0.00 83.1 28.4 47.16 7.4
2018 05 31 17:00 267.3 0.0 0.00 83.6 28.6 49.79 8.8
2018 05 31 18:00 267.4 0.0 0.00 83.0 28.3 53.61 6.6
2018 05 31 19:00 267.6 0.0 0.00 81.6 27.5 56.25 3.1
2018 05 31 20:00 268.9 0.0 0.00 78.6 25.9 62.27 0.5
2018 05 31 21:00 270.3 0.0 0.00 75.5 24.2 70.03 0.3
2018 05 31 22:00 271.8 0.0 0.00 72.9 22.7 77.32 0.8
2018 05 31 23:00 278.6 0.0 0.00 70.0 21.1 85.3 0.7
2018 05 31 24:00 273.9 0.0 0.00 70.3 21.3 82.8 1.4
2018 06 01 1:00 274.3 0.0 0.00 69.1 20.6 84.5 0.1
2018 06 01 2:00 Wet 284.1 0.0 0.00 67.1 19.5 89.6 0.0
2018 06 01 3:00 Wet 330.4 0.0 0.00 65.2 18.4 95 0.0
2018 06 01 4:00 Wet 378.0 0.0 0.00 64.9 18.3 96.7 0.3
2018 06 01 5:00 Wet 397.1 0.0 0.00 65.7 18.7 95.6 0.2
2018 06 01 6:00 Wet 350.0 0.0 0.00 67.7 19.8 94 0.5
2018 06 01 7:00 Wet 288.9 0.0 0.00 71.2 21.8 87.2 1.6
2018 06 01 8:00 269.0 0.0 0.00 76.6 24.8 76.98 4.3
2018 06 01 9:00 267.9 0.0 0.00 81.6 27.6 66.87 4.6
2018 06 01 10:00 267.4 0.0 0.00 84.7 29.3 60.13 6.2
2018 06 01 11:00 266.9 0.0 0.00 86.8 30.5 53.54 6.5
2018 06 01 12:00 266.1 0.0 0.00 89.0 31.7 44.34 5.8
2018 06 01 13:00 264.7 0.0 0.00 91.5 33.1 29.4 4.6
2018 06 01 14:00 265.0 0.0 0.00 91.1 32.8 34.9 4.6
2018 06 01 15:00 265.4 0.0 0.00 91.6 33.1 33.99 2.8
2018 06 01 16:00 265.0 0.0 0.00 93.1 34.0 30.39 2.1
2018 06 01 17:00 264.7 0.0 0.00 92.6 33.6 31.88 2.7
2018 06 01 18:00 264.9 0.0 0.00 91.2 32.9 34.39 2.1
2018 06 01 19:00 265.5 0.0 0.00 89.2 31.8 39 1.0
2018 06 01 20:00 267.0 0.0 0.00 83.9 28.8 50.03 0.0
2018 06 01 21:00 268.7 0.0 0.00 79.8 26.5 60.05 0.0
2018 06 01 22:00 270.5 0.0 0.00 75.1 23.9 71.58 0.2
2018 06 01 23:00 271.3 0.0 0.00 73.4 23.0 75.27 0.3
2018 06 01 24:00 272.1 0.0 0.00 71.4 21.9 82.7 0.1
2018 06 02 1:00 271.8 0.0 0.00 70.3 21.3 87.5 0.3
2018 06 02 2:00 273.2 0.0 0.00 72.6 22.6 79.16 0.1
2018 06 02 3:00 273.4 0.0 0.00 71.8 22.1 82.8 0.4
2018 06 02 4:00 274.8 0.0 0.00 69.9 21.1 87 0.5
2018 06 02 5:00 Wet 311.2 0.0 0.00 67.2 19.6 93.3 0.3
2018 06 02 6:00 Wet 303.4 0.0 0.00 67.5 19.7 93.6 1.2
2018 06 02 7:00 273.0 0.0 0.00 69.9 21.0 91 2.5
2018 06 02 8:00 271.0 0.0 0.00 74.3 23.5 82.7 4.5
2018 06 02 9:00 Wet 288.1 0.0 0.00 76.2 24.6 75.13 7.4
2018 06 02 10:00 Wet 433.2 0.1 1.52 70.3 21.3 88.1 3.7
2018 06 02 11:00 Wet 423.0 0.2 3.81 68.9 20.5 92.1 8.5
2018 06 02 12:00 272.3 0.0 0.00 71.8 22.1 84.3 4.7
2018 06 02 13:00 269.7 0.0 0.00 75.9 24.4 75.49 6.8
2018 06 02 14:00 269.1 0.0 0.00 78.0 25.6 69.44 7.6
2018 06 02 15:00 268.8 0.0 0.00 80.3 26.8 62.83 5.5
2018 06 02 16:00 268.9 0.0 0.00 81.4 27.4 62.47 5.8
2018 06 02 17:00 271.6 0.0 0.00 79.7 26.5 69.04 4.7
2018 06 02 18:00 269.5 0.0 0.00 79.8 26.6 70.52 1.7
2018 06 02 19:00 Wet 330.8 0.2 4.57 76.0 24.4 85.4 3.7
2018 06 02 20:00 275.0 0.0 0.00 75.2 24.0 85.4 5.3
2018 06 02 21:00 271.5 0.0 0.00 75.3 24.1 75.96 6.3
2018 06 02 22:00 271.5 0.0 0.00 73.1 22.8 75.82 4.7
2018 06 02 23:00 272.0 0.0 0.00 70.9 21.6 78.5 4.6
2018 06 02 24:00 271.2 0.0 0.00 70.2 21.2 73.65 10.1
2018 06 03 1:00 271.2 0.0 0.00 67.8 19.9 72.91 5.0
2018 06 03 2:00 271.5 0.0 0.00 65.5 18.6 73.83 3.8
2018 06 03 3:00 271.5 0.0 0.00 63.6 17.6 76.34 4.8
2018 06 03 4:00 271.7 0.0 0.00 62.5 16.9 78.5 5.3
2018 06 03 5:00 271.5 0.0 0.00 62.0 16.7 78.49 6.2
2018 06 03 6:00 270.9 0.0 0.00 61.8 16.6 79.04 5.2
2018 06 03 7:00 269.4 0.0 0.00 64.3 18.0 72.77 5.7
2018 06 03 8:00 268.5 0.0 0.00 69.1 20.6 59.74 9.9
2018 06 03 9:00 267.9 0.0 0.00 71.3 21.9 55.84 9.3
2018 06 03 10:00 267.1 0.0 0.00 73.6 23.1 49.03 9.1
2018 06 03 11:00 266.0 0.0 0.00 76.2 24.6 36.44 9.7
2018 06 03 12:00 265.4 0.0 0.00 77.7 25.4 31.82 12.0
2018 06 03 13:00 265.3 0.0 0.00 79.0 26.1 30.94 13.0
2018 06 03 14:00 265.3 0.0 0.00 79.6 26.4 30.22 14.2
2018 06 03 15:00 265.4 0.0 0.00 80.3 26.8 30.91 13.6
2018 06 03 16:00 265.3 0.0 0.00 81.0 27.2 28.63 13.7
2018 06 03 17:00 265.2 0.0 0.00 80.5 27.0 28.64 12.1
2018 06 03 18:00 264.8 0.0 0.00 79.7 26.5 29.18 10.2
2018 06 03 19:00 265.1 0.0 0.00 77.8 25.5 31.46 9.0
2018 06 03 20:00 265.9 0.0 0.00 74.3 23.5 37.55 5.1
2018 06 03 21:00 266.8 0.0 0.00 70.4 21.4 43.78 3.6
2018 06 03 22:00 267.3 0.0 0.00 67.9 20.0 47.63 2.8
2018 06 03 23:00 268.1 0.0 0.00 65.3 18.5 53.47 2.6
2018 06 03 24:00 269.0 0.0 0.00 63.0 17.3 60.14 0.5
2018 06 04 1:00 274.8 0.0 0.00 58.4 14.6 75.74 0.2
2018 06 04 2:00 Wet 298.0 0.0 0.00 56.9 13.9 80.3 0.1
2018 06 04 3:00 Wet 292.4 0.0 0.00 56.0 13.4 82.7 1.6
2018 06 04 4:00 274.3 0.0 0.00 55.4 13.0 81.9 2.1
2018 06 04 5:00 274.6 0.0 0.00 55.7 13.2 77.52 1.6
2018 06 04 6:00 270.0 0.0 0.00 56.4 13.5 77.01 2.5
2018 06 04 7:00 268.3 0.0 0.00 60.9 16.1 66.96 3.4
2018 06 04 8:00 267.0 0.0 0.00 66.2 19.0 56.84 3.7
2018 06 04 9:00 265.7 0.0 0.00 71.3 21.8 41.07 4.5
2018 06 04 10:00 264.8 0.0 0.00 73.1 22.8 34.25 5.1
2018 06 04 11:00 264.7 0.0 0.00 74.0 23.3 31.74 5.5
2018 06 04 12:00 264.6 0.0 0.00 75.6 24.2 31.14 4.6
2018 06 04 13:00 264.3 0.0 0.00 76.2 24.5 32.36 3.6
2018 06 04 14:00 264.5 0.0 0.00 77.1 25.1 31.68 3.6
2018 06 04 15:00 264.7 0.0 0.00 77.5 25.3 31.23 3.6
2018 06 04 16:00 264.7 0.0 0.00 77.2 25.1 33.59 3.1
2018 06 04 17:00 264.7 0.0 0.00 76.0 24.5 35.18 2.3
2018 06 04 18:00 265.6 0.0 0.00 74.1 23.4 43.61 2.8
2018 06 04 19:00 267.0 0.0 0.00 70.8 21.6 55.56 3.3
2018 06 04 20:00 267.4 0.0 0.00 69.1 20.6 58.09 1.6
2018 06 04 21:00 268.0 0.0 0.00 67.8 19.9 59.44 1.1
2018 06 04 22:00 268.1 0.0 0.00 67.1 19.5 60.82 0.9
2018 06 04 23:00 269.0 0.0 0.00 65.6 18.7 65.48 0.0
2018 06 04 24:00 269.8 0.0 0.00 63.9 17.7 72.33 0.1
2018 06 05 1:00 271.1 0.0 0.00 62.8 17.1 79.19 0.1
2018 06 05 2:00 274.4 0.0 0.00 61.2 16.2 82 0.4
2018 06 05 3:00 Wet 302.5 0.0 0.00 58.4 14.7 91.4 0.1
2018 06 05 4:00 Wet 380.4 0.0 0.00 56.9 13.8 94.3 0.1
2018 06 05 5:00 Wet 437.9 0.0 0.00 55.1 12.9 96.3 0.3
2018 06 05 6:00 Wet 392.4 0.0 0.00 56.3 13.5 95.6 0.2
2018 06 05 7:00 283.7 0.0 0.00 60.9 16.1 85 0.6
2018 06 05 8:00 267.1 0.0 0.00 67.1 19.5 69.83 3.2
2018 06 05 9:00 266.0 0.0 0.00 71.7 22.1 51.36 4.7
2018 06 05 10:00 264.9 0.0 0.00 74.8 23.8 41.37 5.1
2018 06 05 11:00 264.5 0.0 0.00 77.3 25.2 34.29 4.8
2018 06 05 12:00 263.8 0.0 0.00 79.4 26.3 32.15 3.4
2018 06 05 13:00 263.9 0.0 0.00 81.2 27.3 29.76 4.2
2018 06 05 14:00 264.2 0.0 0.00 82.3 27.9 30.19 4.2
2018 06 05 15:00 264.7 0.0 0.00 83.1 28.4 31.25 3.4
2018 06 05 16:00 264.7 0.0 0.00 83.8 28.8 32.65 3.6
2018 06 05 17:00 264.7 0.0 0.00 83.9 28.9 34.57 3.6
2018 06 05 18:00 265.0 0.0 0.00 82.9 28.3 38.33 3.8
2018 06 05 19:00 265.6 0.0 0.00 81.2 27.3 44.16 2.6
2018 06 05 20:00 266.9 0.0 0.00 77.8 25.5 49.88 0.5
2018 06 05 21:00 268.1 0.0 0.00 74.3 23.5 57.66 0.0
2018 06 05 22:00 270.6 0.0 0.00 69.4 20.8 71.93 0.0
2018 06 05 23:00 271.3 0.0 0.00 68.2 20.1 72.75 0.0
2018 06 05 24:00 273.9 0.0 0.00 65.2 18.4 82.5 0.0
2018 06 06 1:00 Wet 291.9 0.0 0.00 63.3 17.4 87.7 0.0
2018 06 06 2:00 Wet 330.6 0.0 0.00 61.8 16.6 92.3 0.1
2018 06 06 3:00 Wet 369.2 0.0 0.00 61.1 16.2 93.3 0.0
2018 06 06 4:00 Wet 403.0 0.0 0.00 60.0 15.6 94.4 0.2
2018 06 06 5:00 Wet 408.6 0.0 0.00 60.1 15.6 94.8 1.9
2018 06 06 6:00 Wet 349.1 0.0 0.00 60.8 16.0 92.9 0.9
2018 06 06 7:00 279.0 0.0 0.00 65.6 18.6 82.5 1.9
2018 06 06 8:00 268.1 0.0 0.00 69.4 20.8 74.74 2.6
2018 06 06 9:00 266.7 0.0 0.00 74.2 23.5 65.63 1.2
2018 06 06 10:00 265.7 0.0 0.00 78.6 25.9 56.16 2.1
2018 06 06 11:00 265.3 0.0 0.00 81.8 27.6 50.62 2.8
2018 06 06 12:00 265.3 0.0 0.00 82.6 28.1 48.2 3.3
2018 06 06 13:00 264.9 0.0 0.00 84.0 28.9 45.71 2.4
2018 06 06 14:00 265.4 0.0 0.00 85.4 29.7 44.7 3.2
2018 06 06 15:00 266.0 0.0 0.00 85.2 29.6 45.98 4.3
2018 06 06 16:00 266.0 0.0 0.00 85.0 29.4 43.97 5.4
2018 06 06 17:00 266.0 0.0 0.00 84.7 29.3 45.31 4.0
2018 06 06 18:00 266.1 0.0 0.00 85.0 29.4 45.96 3.3
2018 06 06 19:00 266.8 0.0 0.00 82.9 28.3 52.33 2.5
2018 06 06 20:00 268.2 0.0 0.00 80.2 26.8 57.85 0.0
2018 06 06 21:00 270.4 0.0 0.00 74.8 23.8 72.57 1.2
2018 06 06 22:00 271.6 0.0 0.00 72.6 22.6 78.12 0.5
2018 06 06 23:00 277.8 0.0 0.00 69.6 20.9 87.2 0.0
2018 06 06 24:00 Wet 306.0 0.0 0.00 68.3 20.2 90.7 0.0
2018 06 07 1:00 Wet 338.4 0.0 0.00 66.6 19.2 94.6 0.0
2018 06 07 2:00 Wet 380.9 0.0 0.00 66.3 19.1 95.3 0.0
2018 06 07 3:00 Wet 404.2 0.0 0.00 65.8 18.8 95.2 0.4
2018 06 07 4:00 Wet 391.0 0.0 0.00 67.0 19.5 87.9 0.3
2018 06 07 5:00 Wet 384.5 0.0 0.00 65.6 18.7 91.2 0.6
2018 06 07 6:00 Wet 336.8 0.0 0.00 67.8 19.9 86.4 1.6
2018 06 07 7:00 271.0 0.0 0.00 71.7 22.1 79.59 2.1
2018 06 07 8:00 269.6 0.0 0.00 74.9 23.9 74.78 3.5
2018 06 07 9:00 269.4 0.0 0.00 74.9 23.9 74.03 2.9
2018 06 07 10:00 267.7 0.0 0.00 77.5 25.3 69.2 1.7
2018 06 07 11:00 266.7 0.0 0.00 81.8 27.6 63.71 3.4
2018 06 07 12:00 266.7 0.0 0.00 85.2 29.6 55.51 6.6
2018 06 07 13:00 266.7 0.0 0.00 85.7 29.9 52.29 6.4
2018 06 07 14:00 266.2 0.0 0.00 87.8 31.0 46.81 5.1
2018 06 07 15:00 266.1 0.0 0.00 89.3 31.8 39.82 6.2
2018 06 07 16:00 265.9 0.0 0.00 89.9 32.1 38.13 5.1
2018 06 07 17:00 265.6 0.0 0.00 89.3 31.9 38.56 4.5
2018 06 07 18:00 265.8 0.0 0.00 88.0 31.1 41.99 3.1
2018 06 07 19:00 266.6 0.0 0.00 86.3 30.2 47.59 0.5
2018 06 07 20:00 268.1 0.0 0.00 82.4 28.0 57.14 0.0
2018 06 07 21:00 269.2 0.0 0.00 79.1 26.2 65.68 0.1
2018 06 07 22:00 269.9 0.0 0.00 77.5 25.3 70.8 0.3
2018 06 07 23:00 270.4 0.0 0.00 76.0 24.4 73.68 1.8
2018 06 07 24:00 270.2 0.0 0.00 76.1 24.5 72.56 3.6
2018 06 08 1:00 270.2 0.0 0.00 75.5 24.2 72.88 0.8
2018 06 08 2:00 270.6 0.0 0.00 74.4 23.6 74.35 0.8
2018 06 08 3:00 271.1 0.0 0.00 73.1 22.8 76.42 0.1
2018 06 08 4:00 271.8 0.0 0.00 71.2 21.8 82.9 0.9
2018 06 08 5:00 271.5 0.0 0.00 71.4 21.9 80.5 0.8
2018 06 08 6:00 271.4 0.0 0.00 71.2 21.8 82.5 0.8
2018 06 08 7:00 269.7 0.0 0.00 73.4 23.0 77.14 2.3
2018 06 08 8:00 268.3 0.0 0.00 77.1 25.1 67.23 4.5
2018 06 08 9:00 267.5 0.0 0.00 80.9 27.2 58.42 6.1
2018 06 08 10:00 267.2 0.0 0.00 82.6 28.1 56.59 7.3
2018 06 08 11:00 266.9 0.0 0.00 84.4 29.1 54.31 7.0
2018 06 08 12:00 266.4 0.0 0.00 86.6 30.3 48.01 8.8
2018 06 08 13:00 266.0 0.0 0.00 87.5 30.9 45.14 7.5
2018 06 08 14:00 266.0 0.0 0.00 87.2 30.7 46.63 5.2
2018 06 08 15:00 266.2 0.0 0.00 87.0 30.6 47.98 4.6
2018 06 08 16:00 266.7 0.0 0.00 86.9 30.5 49.92 4.6
2018 06 08 17:00 266.7 0.0 0.00 87.2 30.6 50.53 4.6
2018 06 08 18:00 266.7 0.0 0.00 86.5 30.3 51.69 5.7
2018 06 08 19:00 267.2 0.0 0.00 84.9 29.4 55.18 3.8
2018 06 08 20:00 268.3 0.0 0.00 82.6 28.1 60.11 0.6
2018 06 08 21:00 269.2 0.0 0.00 79.9 26.6 66.33 0.0
2018 06 08 22:00 270.0 0.0 0.00 77.5 25.3 73.44 0.0
2018 06 08 23:00 271.7 0.0 0.00 75.1 24.0 79.93 0.1
2018 06 08 24:00 272.1 0.0 0.00 74.6 23.7 80.6 0.0
2018 06 09 1:00 273.0 0.0 0.00 73.4 23.0 83.4 0.3
2018 06 09 2:00 273.3 0.0 0.00 72.3 22.4 85.3 1.1
2018 06 09 3:00 272.3 0.0 0.00 73.0 22.8 83 0.6
2018 06 09 4:00 273.0 0.0 0.00 72.1 22.3 85.6 0.5
2018 06 09 5:00 273.1 0.0 0.00 72.1 22.3 84.4 0.6
2018 06 09 6:00 272.4 0.0 0.00 71.9 22.2 86.1 0.3
2018 06 09 7:00 271.9 0.0 0.00 72.7 22.6 85 0.6
2018 06 09 8:00 270.0 0.0 0.00 75.6 24.2 79.36 3.4
2018 06 09 9:00 Wet 310.0 0.0 0.51 77.1 25.0 81.4 3.0
2018 06 09 10:00 269.2 0.0 0.00 79.8 26.6 76.25 2.9
2018 06 09 11:00 267.6 0.0 0.00 84.0 28.9 66.72 5.4
2018 06 09 12:00 267.0 0.0 0.00 84.7 29.3 60.9 6.7
2018 06 09 13:00 268.6 0.0 0.00 73.1 22.9 71.45 11.1
2018 06 09 14:00 268.1 0.0 0.00 77.8 25.4 65.68 10.0
2018 06 09 15:00 268.0 0.0 0.00 81.9 27.7 60.58 10.9
2018 06 09 16:00 267.8 0.0 0.00 83.8 28.8 55.87 9.8
2018 06 09 17:00 267.4 0.0 0.00 84.4 29.1 53.6 8.6
2018 06 09 18:00 267.4 0.0 0.00 84.1 29.0 54.58 6.8
2018 06 09 19:00 267.8 0.0 0.00 82.6 28.1 57.57 6.2
2018 06 09 20:00 268.5 0.0 0.00 79.9 26.6 61.66 5.1
2018 06 09 21:00 269.3 0.0 0.00 77.6 25.3 68.3 3.0
2018 06 09 22:00 270.1 0.0 0.00 76.2 24.5 74.5 3.2
2018 06 09 23:00 270.5 0.0 0.00 75.5 24.1 76.34 2.5
2018 06 09 24:00 270.8 0.0 0.00 74.5 23.6 78.03 3.0
2018 06 10 1:00 271.0 0.0 0.00 73.8 23.2 79.67 3.5
2018 06 10 2:00 271.5 0.0 0.00 73.4 23.0 80.6 2.6
2018 06 10 3:00 271.3 0.0 0.00 73.8 23.2 79.66 3.6
2018 06 10 4:00 273.9 0.0 0.00 72.6 22.5 83.1 0.3
2018 06 10 5:00 273.9 0.0 0.00 71.2 21.8 86.9 2.0
2018 06 10 6:00 272.5 0.0 0.00 71.7 22.0 86.2 0.9
2018 06 10 7:00 270.2 0.0 0.00 74.2 23.4 80.9 5.9
2018 06 10 8:00 269.0 0.0 0.00 78.5 25.8 67.69 7.0
2018 06 10 9:00 267.6 0.0 0.00 82.1 27.9 58.77 9.0
2018 06 10 10:00 266.9 0.0 0.00 84.4 29.1 53.57 9.0
2018 06 10 11:00 266.5 0.0 0.00 86.6 30.3 49.65 9.0
2018 06 10 12:00 266.1 0.0 0.00 88.4 31.4 47.69 8.7
2018 06 10 13:00 266.0 0.0 0.00 89.3 31.9 47.38 8.2
2018 06 10 14:00 266.2 0.0 0.00 90.1 32.3 47.03 8.1
2018 06 10 15:00 266.7 0.0 0.00 90.8 32.7 45.45 7.7
2018 06 10 16:00 266.5 0.0 0.00 91.0 32.8 45.19 7.9
2018 06 10 17:00 266.6 0.0 0.00 90.5 32.5 46.17 7.7
2018 06 10 18:00 266.3 0.0 0.00 89.5 31.9 45.92 7.8
2018 06 10 19:00 266.7 0.0 0.00 87.5 30.9 49.01 4.5
2018 06 10 20:00 267.6 0.0 0.00 85.1 29.5 55.06 1.8
2018 06 10 21:00 268.5 0.0 0.00 79.4 26.3 67.51 5.5
2018 06 10 22:00 269.5 0.0 0.00 76.9 25.0 72.74 1.0
2018 06 10 23:00 270.7 0.0 0.00 75.3 24.1 77.68 1.4
2018 06 10 24:00 271.3 0.0 0.00 74.1 23.4 80.9 1.1
2018 06 11 1:00 271.5 0.0 0.00 74.5 23.6 78.77 2.8
2018 06 11 2:00 270.2 0.0 0.00 77.0 25.0 68.97 3.8
2018 06 11 3:00 270.6 0.0 0.00 75.8 24.3 70.26 1.2
2018 06 11 4:00 271.1 0.0 0.00 74.4 23.6 72.84 0.2
2018 06 11 5:00 271.9 0.0 0.00 71.6 22.0 81.1 2.1
2018 06 11 6:00 272.9 0.0 0.00 70.4 21.4 86.6 0.8
2018 06 11 7:00 270.8 0.0 0.00 72.5 22.5 85.7 3.0
2018 06 11 8:00 269.5 0.0 0.00 75.6 24.2 79.17 3.1
2018 06 11 9:00 267.8 0.0 0.00 79.3 26.3 67.35 4.7
2018 06 11 10:00 267.1 0.0 0.00 82.8 28.3 60.55 5.9
2018 06 11 11:00 266.4 0.0 0.00 85.6 29.8 57 3.7
2018 06 11 12:00 266.1 0.0 0.00 88.0 31.1 53.59 5.1
2018 06 11 13:00 266.2 0.0 0.00 89.8 32.1 48.33 7.4
2018 06 11 14:00 266.0 0.0 0.00 91.2 32.9 45.22 7.2
2018 06 11 15:00 266.1 0.0 0.00 91.3 33.0 44.96 8.1
2018 06 11 16:00 266.3 0.0 0.00 91.4 33.0 45.41 7.5
2018 06 11 17:00 266.1 0.0 0.00 90.5 32.5 44.42 5.8
2018 06 11 18:00 266.1 0.0 0.00 90.1 32.3 47.23 3.8
2018 06 11 19:00 267.0 0.0 0.00 87.7 30.9 52.79 4.0
2018 06 11 20:00 267.9 0.0 0.00 84.8 29.4 58.73 2.4
2018 06 11 21:00 268.2 0.0 0.00 83.1 28.4 61.77 3.5
2018 06 11 22:00 269.0 0.0 0.00 80.5 26.9 69.35 3.1
2018 06 11 23:00 269.6 0.0 0.00 77.2 25.1 74.21 2.9
2018 06 11 24:00 270.2 0.0 0.00 75.5 24.2 77.81 3.4
2018 06 12 1:00 270.8 0.0 0.00 74.1 23.4 80.2 0.8
2018 06 12 2:00 272.0 0.0 0.00 73.1 22.8 84.6 0.9
2018 06 12 3:00 270.6 0.0 0.00 75.6 24.2 73.05 9.6
2018 06 12 4:00 270.2 0.0 0.00 74.0 23.4 71.48 5.5
2018 06 12 5:00 270.2 0.0 0.00 73.1 22.9 69.74 3.4
2018 06 12 6:00 270.2 0.0 0.00 72.2 22.4 71.98 4.0
2018 06 12 7:00 269.5 0.0 0.00 72.8 22.7 71.61 3.9
2018 06 12 8:00 269.0 0.0 0.00 73.8 23.2 70.33 2.1
2018 06 12 9:00 267.7 0.0 0.00 76.3 24.6 66.88 3.8
2018 06 12 10:00 267.2 0.0 0.00 79.1 26.1 58.66 4.4
2018 06 12 11:00 265.9 0.0 0.00 81.9 27.7 50.6 5.1
2018 06 12 12:00 266.1 0.0 0.00 82.6 28.1 49.3 3.7
2018 06 12 13:00 266.0 0.0 0.00 84.3 29.1 48.95 4.5
2018 06 12 14:00 265.8 0.0 0.00 85.9 29.9 42.5 7.1
2018 06 12 15:00 266.0 0.0 0.00 86.5 30.3 42.54 8.4
2018 06 12 16:00 266.0 0.0 0.00 86.8 30.4 44.51 6.9
2018 06 12 17:00 266.1 0.0 0.00 86.3 30.2 46.57 5.8
2018 06 12 18:00 266.5 0.0 0.00 85.4 29.7 48.55 4.7
2018 06 12 19:00 267.5 0.0 0.00 82.6 28.1 60.79 3.1
2018 06 12 20:00 268.7 0.0 0.00 80.2 26.8 66.05 0.9
2018 06 12 21:00 269.8 0.0 0.00 77.8 25.4 71.02 0.4
2018 06 12 22:00 271.7 0.0 0.00 75.1 24.0 77.64 0.5
2018 06 12 23:00 272.6 0.0 0.00 73.8 23.2 81 0.6
2018 06 12 24:00 273.4 0.0 0.00 72.7 22.6 84.5 0.8
2018 06 13 1:00 274.0 0.0 0.00 72.3 22.4 86.7 2.0
2018 06 13 2:00 274.6 0.0 0.00 71.9 22.1 86.9 1.9
2018 06 13 3:00 274.8 0.0 0.00 71.4 21.9 87.3 2.0
2018 06 13 4:00 279.4 0.0 0.00 69.7 20.9 91.4 0.6
2018 06 13 5:00 Wet 307.2 0.0 0.00 69.2 20.7 91.8 0.0
2018 06 13 6:00 Wet 317.6 0.0 0.00 68.7 20.4 94.6 0.0
2018 06 13 7:00 271.7 0.0 0.00 72.1 22.3 87.2 1.2
2018 06 13 8:00 269.6 0.0 0.00 77.1 25.0 74.76 5.0
2018 06 13 9:00 268.7 0.0 0.00 80.6 27.0 69.22 6.9
2018 06 13 10:00 268.4 0.0 0.00 82.2 27.9 67.18 8.1
2018 06 13 11:00 268.3 0.0 0.00 82.9 28.3 65.12 8.5
2018 06 13 12:00 268.0 0.0 0.00 83.5 28.6 61.71 6.2
2018 06 13 13:00 267.4 0.0 0.00 86.0 30.0 55.04 6.4
2018 06 13 14:00 267.1 0.0 0.00 87.0 30.6 49.97 6.1
2018 06 13 15:00 267.0 0.0 0.00 87.2 30.7 46.25 7.1
2018 06 13 16:00 266.7 0.0 0.00 87.0 30.6 43.32 7.0
2018 06 13 17:00 266.4 0.0 0.00 86.3 30.1 40.75 6.7
2018 06 13 18:00 266.0 0.0 0.00 83.6 28.6 39.42 6.0
2018 06 13 19:00 266.4 0.0 0.00 80.3 26.9 42.78 4.5
2018 06 13 20:00 266.9 0.0 0.00 76.7 24.8 47.31 2.8
2018 06 13 21:00 267.5 0.0 0.00 73.7 23.1 52.09 2.0
2018 06 13 22:00 268.2 0.0 0.00 70.7 21.5 58.22 0.9
2018 06 13 23:00 269.9 0.0 0.00 66.3 19.0 70.37 0.1
2018 06 13 24:00 272.2 0.0 0.00 64.1 17.8 78.58 0.1
2018 06 14 1:00 272.4 0.0 0.00 63.0 17.3 82 0.9
2018 06 14 2:00 273.0 0.0 0.00 62.6 17.0 82.7 0.5
2018 06 14 3:00 273.8 0.0 0.00 62.0 16.7 84.6 0.5
2018 06 14 4:00 274.9 0.0 0.00 60.5 15.9 88.9 0.4
2018 06 14 5:00 275.3 0.0 0.00 61.5 16.4 86 1.2
2018 06 14 6:00 271.3 0.0 0.00 61.8 16.6 87.8 0.4
2018 06 14 7:00 268.8 0.0 0.00 66.9 19.4 74.53 3.1
2018 06 14 8:00 267.9 0.0 0.00 72.0 22.2 64.57 4.4
2018 06 14 9:00 266.8 0.0 0.00 76.6 24.8 55.93 5.9
2018 06 14 10:00 266.2 0.0 0.00 79.7 26.5 54.16 5.4
2018 06 14 11:00 266.1 0.0 0.00 82.2 27.9 53.64 5.5
2018 06 14 12:00 266.0 0.0 0.00 84.8 29.3 51.79 5.5
2018 06 14 13:00 266.0 0.0 0.00 87.1 30.6 50.61 5.4
2018 06 14 14:00 265.9 0.0 0.00 88.8 31.6 49.6 4.6
2018 06 14 15:00 266.6 0.0 0.00 87.8 31.0 51.08 6.7
2018 06 14 16:00 Wet 371.8 0.5 11.43 71.0 21.7 76.87 11.8
2018 06 14 17:00 Wet 350.6 0.1 1.52 68.2 20.1 88.5 7.0
2018 06 14 18:00 273.9 0.0 0.00 68.8 20.5 88.2 5.7
2018 06 14 19:00 271.5 0.0 0.00 69.4 20.8 85 2.8
2018 06 14 20:00 271.8 0.0 0.00 68.8 20.4 85 1.9
2018 06 14 21:00 281.2 0.0 0.00 67.5 19.7 88.7 0.8
2018 06 14 22:00 283.7 0.0 0.00 67.3 19.6 87.4 1.7
2018 06 14 23:00 Wet 324.2 0.0 0.00 65.3 18.5 94.1 1.2
2018 06 14 24:00 Wet 394.2 0.0 0.00 64.8 18.2 94.7 1.6
2018 06 15 1:00 Wet 391.9 0.0 0.00 65.3 18.5 88.7 1.5
2018 06 15 2:00 Wet 365.7 0.0 0.00 64.8 18.2 89.8 0.5
2018 06 15 3:00 Wet 375.7 0.0 0.00 63.9 17.7 93.6 0.3
2018 06 15 4:00 Wet 380.8 0.0 0.00 64.1 17.9 92.8 0.5
2018 06 15 5:00 Wet 387.5 0.0 0.00 63.5 17.5 95.4 0.0
2018 06 15 6:00 Wet 353.8 0.0 0.25 64.7 18.1 94.2 1.6
2018 06 15 7:00 280.5 0.0 0.00 68.3 20.1 87.4 3.9
2018 06 15 8:00 269.5 0.0 0.00 73.1 22.8 78.75 4.6
2018 06 15 9:00 268.5 0.0 0.00 77.2 25.1 72.28 5.3
2018 06 15 10:00 267.9 0.0 0.00 80.8 27.1 68.97 4.6
2018 06 15 11:00 267.3 0.0 0.00 84.7 29.3 63.6 4.5
2018 06 15 12:00 266.8 0.0 0.00 87.1 30.6 57.54 4.4
2018 06 15 13:00 266.7 0.0 0.00 89.0 31.7 53.78 5.5
2018 06 15 14:00 266.8 0.0 0.00 90.7 32.6 49.74 7.1
2018 06 15 15:00 267.0 0.0 0.00 91.6 33.1 47.6 7.1
2018 06 15 16:00 266.7 0.0 0.00 91.8 33.3 45.39 7.1
2018 06 15 17:00 266.7 0.0 0.00 91.5 33.0 47.45 6.8
2018 06 15 18:00 266.9 0.0 0.00 89.7 32.0 49.88 5.5
2018 06 15 19:00 267.3 0.0 0.00 88.3 31.3 54.32 3.9
2018 06 15 20:00 268.2 0.0 0.00 85.1 29.5 60.5 4.0
2018 06 15 21:00 268.8 0.0 0.00 82.0 27.8 62.19 4.1
2018 06 15 22:00 268.8 0.0 0.00 79.7 26.5 65.78 2.8
2018 06 15 23:00 269.7 0.0 0.00 77.5 25.3 71.16 1.7
2018 06 15 24:00 270.3 0.0 0.00 75.9 24.4 74.97 0.7
2018 06 16 1:00 270.7 0.0 0.00 74.9 23.8 76.31 0.2
2018 06 16 2:00 271.2 0.0 0.00 73.7 23.2 79.38 1.0
2018 06 16 3:00 272.9 0.0 0.00 72.4 22.5 83.1 0.9
2018 06 16 4:00 281.3 0.0 0.00 70.3 21.3 89.9 0.0
2018 06 16 5:00 Wet 292.6 0.0 0.00 69.9 21.0 91.1 1.3
2018 06 16 6:00 276.6 0.0 0.00 70.8 21.6 89.9 1.6
2018 06 16 7:00 269.8 0.0 0.00 74.4 23.6 82.9 1.8
2018 06 16 8:00 268.5 0.0 0.00 79.1 26.2 73.19 4.5
2018 06 16 9:00 267.8 0.0 0.00 82.9 28.3 65.23 6.5
2018 06 16 10:00 267.2 0.0 0.00 85.4 29.6 59.49 7.0
2018 06 16 11:00 266.7 0.0 0.00 87.7 30.9 55 6.5
2018 06 16 12:00 266.2 0.0 0.00 89.2 31.8 50.21 7.3
2018 06 16 13:00 266.0 0.0 0.00 90.2 32.4 47.96 7.4
2018 06 16 14:00 266.1 0.0 0.00 91.0 32.8 44.96 7.9
2018 06 16 15:00 266.3 0.0 0.00 91.4 33.0 43.85 7.8
2018 06 16 16:00 266.1 0.0 0.00 91.5 33.0 43.69 6.6
2018 06 16 17:00 266.0 0.0 0.00 91.2 32.9 44.5 6.3
2018 06 16 18:00 266.1 0.0 0.00 90.4 32.4 45.37 6.0
2018 06 16 19:00 266.7 0.0 0.00 88.6 31.4 49.73 4.3
2018 06 16 20:00 267.3 0.0 0.00 85.6 29.8 53.29 1.2
2018 06 16 21:00 268.6 0.0 0.00 82.4 28.0 62.79 0.2
2018 06 16 22:00 269.4 0.0 0.00 80.7 27.1 68.8 0.2
2018 06 16 23:00 270.7 0.0 0.00 78.3 25.7 75.16 0.3
2018 06 16 24:00 270.8 0.0 0.00 77.6 25.3 77.51 2.2
2018 06 17 1:00 271.2 0.0 0.00 76.7 24.8 79.59 2.3
2018 06 17 2:00 271.3 0.0 0.00 76.3 24.6 78.12 2.5
2018 06 17 3:00 270.8 0.0 0.00 76.6 24.8 75.62 2.7
2018 06 17 4:00 271.3 0.0 0.00 75.7 24.3 77.41 1.3
2018 06 17 5:00 272.2 0.0 0.00 74.1 23.4 81.5 0.9
2018 06 17 6:00 271.0 0.0 0.00 74.5 23.6 81.1 2.1
2018 06 17 7:00 269.3 0.0 0.00 77.7 25.4 74.85 5.3
2018 06 17 8:00 268.2 0.0 0.00 81.5 27.5 66.41 6.0
2018 06 17 9:00 267.4 0.0 0.00 84.0 28.9 61.78 5.8
2018 06 17 10:00 266.9 0.0 0.00 86.3 30.2 58.78 6.8
2018 06 17 11:00 266.6 0.0 0.00 88.2 31.2 55.73 7.1
2018 06 17 12:00 266.1 0.0 0.00 90.0 32.2 51.21 7.3
2018 06 17 13:00 266.0 0.0 0.00 91.3 33.0 47.02 7.4
2018 06 17 14:00 266.0 0.0 0.00 91.8 33.3 46.37 7.7
2018 06 17 15:00 266.2 0.0 0.00 91.8 33.2 47.37 6.8
2018 06 17 16:00 269.2 0.0 0.00 88.6 31.4 53.87 5.8
2018 06 17 17:00 266.7 0.0 0.00 88.9 31.6 53.4 4.1
2018 06 17 18:00 266.7 0.0 0.00 89.6 32.0 50.57 5.0
2018 06 17 19:00 267.4 0.0 0.00 87.4 30.8 55.73 3.3
2018 06 17 20:00 268.4 0.0 0.00 84.6 29.2 60.67 2.1
2018 06 17 21:00 268.9 0.0 0.00 82.1 27.9 65.53 1.9
2018 06 17 22:00 269.5 0.0 0.00 80.1 26.7 70.02 1.3
2018 06 17 23:00 269.5 0.0 0.00 79.2 26.2 71.96 3.6
2018 06 17 24:00 269.6 0.0 0.00 79.4 26.4 70.9 5.1
2018 06 18 1:00 269.5 0.0 0.00 79.7 26.5 69.67 4.6
2018 06 18 2:00 270.0 0.0 0.00 78.5 25.8 72.03 3.0
2018 06 18 3:00 270.6 0.0 0.00 76.9 25.0 75.51 0.8
2018 06 18 4:00 271.5 0.0 0.00 75.3 24.1 79.74 1.7
2018 06 18 5:00 271.3 0.0 0.00 75.1 24.0 79.54 3.4
2018 06 18 6:00 270.2 0.0 0.00 76.2 24.6 76.83 5.1
2018 06 18 7:00 268.9 0.0 0.00 78.7 25.9 71.93 6.6
2018 06 18 8:00 268.0 0.0 0.00 81.5 27.5 66.8 7.2
2018 06 18 9:00 267.3 0.0 0.00 83.9 28.8 62.24 7.6
2018 06 18 10:00 266.8 0.0 0.00 86.0 30.0 58.87 7.1
2018 06 18 11:00 266.2 0.0 0.00 88.0 31.1 55.91 6.0
2018 06 18 12:00 266.1 0.0 0.00 89.3 31.9 51.89 6.1
2018 06 18 13:00 265.9 0.0 0.00 90.6 32.6 50.35 6.0
2018 06 18 14:00 266.0 0.0 0.00 91.3 32.9 47.3 7.9
2018 06 18 15:00 266.5 0.0 0.00 91.7 33.2 46.95 8.0
2018 06 18 16:00 266.4 0.0 0.00 91.9 33.3 47 7.9
2018 06 18 17:00 266.3 0.0 0.00 91.1 32.8 47.53 8.4
2018 06 18 18:00 266.7 0.0 0.00 89.6 32.0 50.83 7.9
2018 06 18 19:00 266.9 0.0 0.00 87.9 31.0 53.98 6.7
2018 06 18 20:00 267.8 0.0 0.00 85.2 29.6 59.51 3.9
2018 06 18 21:00 268.6 0.0 0.00 82.8 28.2 64.79 2.6
2018 06 18 22:00 268.9 0.0 0.00 81.3 27.4 67.42 2.8
2018 06 18 23:00 269.5 0.0 0.00 79.6 26.4 70.88 2.0
2018 06 18 24:00 269.8 0.0 0.00 78.2 25.6 74.2 3.7
2018 06 19 1:00 270.1 0.0 0.00 77.5 25.3 74.32 4.2
2018 06 19 2:00 269.7 0.0 0.00 77.4 25.2 73.14 5.6
2018 06 19 3:00 270.0 0.0 0.00 76.8 24.9 73.36 4.4
2018 06 19 4:00 270.2 0.0 0.00 75.6 24.2 75.64 1.9
2018 06 19 5:00 270.8 0.0 0.00 74.4 23.6 78.24 1.5
2018 06 19 6:00 269.9 0.0 0.00 74.8 23.8 77.45 2.6
2018 06 19 7:00 268.6 0.0 0.00 77.3 25.1 72.54 5.6
2018 06 19 8:00 267.9 0.0 0.00 80.0 26.6 67.34 7.3
2018 06 19 9:00 267.3 0.0 0.00 82.6 28.1 62.54 7.9
2018 06 19 10:00 267.0 0.0 0.00 84.4 29.1 60.04 6.4
2018 06 19 11:00 266.4 0.0 0.00 86.1 30.1 57.38 6.1
2018 06 19 12:00 266.3 0.0 0.00 87.3 30.7 55.36 6.1
2018 06 19 13:00 266.1 0.0 0.00 88.9 31.6 51.57 7.1
2018 06 19 14:00 266.2 0.0 0.00 89.8 32.1 49.52 8.3
2018 06 19 15:00 266.7 0.0 0.00 90.1 32.3 49.26 8.6
2018 06 19 16:00 Wet 286.5 0.1 2.79 88.1 31.1 53.3 7.8
2018 06 19 17:00 Wet 429.8 0.6 14.22 73.3 23.0 83 10.1
2018 06 19 18:00 Wet 340.4 0.0 0.25 74.0 23.4 85.4 5.2
2018 06 19 19:00 Wet 334.8 0.0 0.00 72.4 22.4 92.2 5.4
2018 06 19 20:00 Wet 287.3 0.0 0.00 72.3 22.4 91.5 5.2
2018 06 19 21:00 274.5 0.0 0.00 72.5 22.5 91.3 6.1
2018 06 19 22:00 273.5 0.0 0.00 72.2 22.3 91.7 4.0
2018 06 19 23:00 274.6 0.0 0.00 72.0 22.2 92 1.9
2018 06 19 24:00 Wet 293.3 0.0 0.00 71.1 21.7 95.3 1.9
2018 06 20 1:00 Wet 371.9 0.0 0.51 71.1 21.7 95 3.2
2018 06 20 2:00 Wet 407.3 0.0 1.02 70.4 21.3 92.6 3.9
2018 06 20 3:00 Wet 299.2 0.0 0.00 69.7 20.9 93.2 2.9
2018 06 20 4:00 Wet 288.0 0.0 0.00 69.8 21.0 93.4 1.3
2018 06 20 5:00 280.1 0.0 0.00 70.1 21.2 93.9 0.1
2018 06 20 6:00 278.9 0.0 0.00 70.1 21.2 92.1 1.8
2018 06 20 7:00 Wet 305.4 0.0 0.00 70.4 21.4 92.8 2.3
2018 06 20 8:00 Wet 305.3 0.0 0.25 71.9 22.2 90.9 3.1
2018 06 20 9:00 Wet 337.1 0.1 1.52 72.9 22.7 91.9 3.3
2018 06 20 10:00 269.9 0.0 0.00 76.7 24.9 84.1 5.7
2018 06 20 11:00 268.9 0.0 0.00 80.5 27.0 74.41 5.2
2018 06 20 12:00 268.3 0.0 0.00 82.9 28.3 67.33 5.9
2018 06 20 13:00 267.9 0.0 0.00 84.7 29.3 61.87 5.6
2018 06 20 14:00 267.8 0.0 0.00 86.3 30.1 58 7.4
2018 06 20 15:00 268.1 0.0 0.00 86.8 30.5 56.52 8.4
2018 06 20 16:00 268.0 0.0 0.00 86.9 30.5 55.75 8.3
2018 06 20 17:00 268.0 0.0 0.00 86.4 30.2 55.97 7.5
2018 06 20 18:00 Wet 299.8 0.0 1.02 77.5 25.3 75.62 10.9
2018 06 20 19:00 271.0 0.0 0.00 75.1 23.9 78.74 6.1
2018 06 20 20:00 Wet 289.2 0.0 0.00 74.5 23.6 81.6 0.9
CST mV in mm F C % mph
Year Month Day Hour Leaf Wetness Total
Precipitation
Avg. Temp Avg. Rel.
Humidity
Wind
Speed

Back to the top of the page